Observation data for Sierra Blanca on 02/23/2019      Previous  Date       Current Mesonet Observations  Soil Data  Daily Summary Page  Observations in Plain Language
KSB1 230600Z 26020KT 01/M01 A2998 RMK A01 T00051007  RH  091%=      5-min Rain = 0
KSB1 230601Z 26022KT 01/M01 A2998 RMK A01 T00061007  RH  091%=      5-min Rain = 0
KSB1 230602Z 25018G26KT 01/M01 A2999 RMK A01 T00061008  RH  090%=      5-min Rain = 0
KSB1 230603Z 26017KT 01/M01 A2999 RMK A01 T00071008  RH  090%=      5-min Rain = 0
KSB1 230604Z 26016G21KT 01/M01 A2999 RMK A01 T00071009  RH  089%=      5-min Rain = 0
KSB1 230605Z 26018G24KT 01/M01 A2998 RMK A01 T00071009  RH  089%=      5-min Rain = 0
KSB1 230606Z 25024G32KT 01/M01 A2998 RMK A01 T00071010  RH  089%=      5-min Rain = 0
KSB1 230607Z 27021KT 01/M01 A2998 RMK A01 T00081010  RH  088%=      5-min Rain = 0
KSB1 230608Z 27018KT 01/M01 A2998 RMK A01 T00091010  RH  087%=      5-min Rain = 0
KSB1 230609Z 27014KT 01/M01 A2998 RMK A01 T00081010  RH  088%=      5-min Rain = 0
KSB1 230610Z 26017KT 01/M01 A2998 RMK A01 T00081010  RH  088%=      5-min Rain = 0
KSB1 230611Z 25017KT 01/M01 A2998 RMK A01 T00081010  RH  088%=      5-min Rain = 0
KSB1 230612Z 26015KT 01/M01 A2998 RMK A01 T00081010  RH  088%=      5-min Rain = 0
KSB1 230613Z 27018G26KT 01/M01 A2998 RMK A01 T00081010  RH  088%=      5-min Rain = 0
KSB1 230614Z 26019KT 01/M01 A2998 RMK A01 T00071011  RH  088%=      5-min Rain = 0
KSB1 230615Z 26017KT 01/M01 A2998 RMK A01 T00081011  RH  087%=      5-min Rain = 0
KSB1 230616Z 25020KT 01/M01 A2997 RMK A01 T00081012  RH  087%=      5-min Rain = 0
KSB1 230617Z 26021G27KT 01/M01 A2998 RMK A01 T00081012  RH  086%=      5-min Rain = 0
KSB1 230618Z 25020KT 01/M01 A2997 RMK A01 T00081012  RH  086%=      5-min Rain = 0
KSB1 230619Z 25017KT 01/M01 A2998 RMK A01 T00081013  RH  086%=      5-min Rain = 0
KSB1 230620Z 25021KT 01/M01 A2997 RMK A01 T00091013  RH  086%=      5-min Rain = 0
KSB1 230621Z 26023G28KT 01/M01 A2997 RMK A01 T00091013  RH  085%=      5-min Rain = 0
KSB1 230622Z 26019KT 01/M01 A2997 RMK A01 T00101014  RH  085%=      5-min Rain = 0
KSB1 230623Z 25018G24KT 01/M02 A2998 RMK A01 T00101015  RH  083%=      5-min Rain = 0
KSB1 230624Z 27019G24KT 01/M02 A2998 RMK A01 T00111016  RH  082%=      5-min Rain = 0
KSB1 230625Z 27020G26KT 01/M02 A2998 RMK A01 T00121017  RH  081%=      5-min Rain = 0
KSB1 230626Z 26019G24KT 01/M02 A2997 RMK A01 T00131017  RH  081%=      5-min Rain = 0
KSB1 230627Z 26020KT 01/M02 A2997 RMK A01 T00131018  RH  080%=      5-min Rain = 0
KSB1 230628Z 26019KT 01/M02 A2997 RMK A01 T00131018  RH  080%=      5-min Rain = 0
KSB1 230629Z 27019KT 01/M02 A2997 RMK A01 T00131019  RH  079%=      5-min Rain = 0
KSB1 230630Z 26019KT 01/M02 A2997 RMK A01 T00141019  RH  079%=      5-min Rain = 0
KSB1 230631Z 26019G24KT 01/M02 A2997 RMK A01 T00141019  RH  079%=      5-min Rain = 0
KSB1 230632Z 26016KT 01/M02 A2997 RMK A01 T00141019  RH  079%=      5-min Rain = 0
KSB1 230633Z 26018KT 01/M02 A2997 RMK A01 T00131019  RH  079%=      5-min Rain = 0
KSB1 230634Z 26019G24KT 01/M02 A2997 RMK A01 T00141021  RH  077%=      5-min Rain = 0
KSB1 230635Z 25020KT 02/M02 A2997 RMK A01 T00151022  RH  076%=      5-min Rain = 0
KSB1 230636Z 26017KT 02/M02 A2997 RMK A01 T00151023  RH  076%=      5-min Rain = 0
KSB1 230637Z 26017KT 02/M02 A2997 RMK A01 T00151022  RH  077%=      5-min Rain = 0
KSB1 230638Z 26016KT 02/M02 A2997 RMK A01 T00151021  RH  077%=      5-min Rain = 0
KSB1 230639Z 25016KT 02/M02 A2998 RMK A01 T00151021  RH  077%=      5-min Rain = 0
KSB1 230640Z 25018KT 02/M02 A2997 RMK A01 T00151021  RH  077%=      5-min Rain = 0
KSB1 230641Z 25015G20KT 02/M03 A2997 RMK A01 T00151025  RH  075%=      5-min Rain = 0
KSB1 230642Z 25015KT 02/M02 A2997 RMK A01 T00161024  RH  075%=      5-min Rain = 0
KSB1 230643Z 25021G28KT 02/M02 A2997 RMK A01 T00151023  RH  075%=      5-min Rain = 0
KSB1 230644Z 26021G26KT 02/M03 A2997 RMK A01 T00161028  RH  073%=      5-min Rain = 0
KSB1 230645Z 25018KT 02/M03 A2997 RMK A01 T00181030  RH  070%=      5-min Rain = 0
KSB1 230646Z 25019KT 02/M03 A2997 RMK A01 T00181031  RH  070%=      5-min Rain = 0
KSB1 230647Z 25018KT 02/M03 A2997 RMK A01 T00181029  RH  071%=      5-min Rain = 0
KSB1 230648Z 26015KT 02/M03 A2997 RMK A01 T00171028  RH  072%=      5-min Rain = 0
KSB1 230649Z 25018KT 02/M03 A2997 RMK A01 T00171027  RH  073%=      5-min Rain = 0
KSB1 230650Z 26019KT 02/M03 A2997 RMK A01 T00171028  RH  072%=      5-min Rain = 0
KSB1 230651Z 26018KT 02/M03 A2997 RMK A01 T00171028  RH  072%=      5-min Rain = 0
KSB1 230652Z 26018KT 02/M03 A2997 RMK A01 T00171027  RH  073%=      5-min Rain = 0
KSB1 230653Z 25016KT 02/M03 A2997 RMK A01 T00171027  RH  073%=      5-min Rain = 0
KSB1 230654Z 26019KT 02/M03 A2997 RMK A01 T00171027  RH  073%=      5-min Rain = 0
KSB1 230655Z 25015KT 02/M03 A2997 RMK A01 T00171026  RH  073%=      5-min Rain = 0
KSB1 230656Z 24015KT 02/M03 A2997 RMK A01 T00161025  RH  074%=      5-min Rain = 0
KSB1 230657Z 24014KT 02/M02 A2997 RMK A01 T00161024  RH  075%=      5-min Rain = 0
KSB1 230658Z 25013KT 02/M02 A2997 RMK A01 T00151023  RH  076%=      5-min Rain = 0
KSB1 230659Z 26014G19KT 02/M02 A2997 RMK A01 T00151023  RH  076%=      5-min Rain = 0
KSB1 230700Z 26017KT 02/M03 A2997 RMK A01 T00151026  RH  074%=      5-min Rain = 0
KSB1 230701Z 26016G22KT 02/M03 A2997 RMK A01 T00161027  RH  073%=      5-min Rain = 0
KSB1 230702Z 26017KT 02/M03 A2997 RMK A01 T00161026  RH  074%=      5-min Rain = 0
KSB1 230703Z 26016G23KT 02/M03 A2997 RMK A01 T00161026  RH  074%=      5-min Rain = 0
KSB1 230704Z 26018G23KT 02/M03 A2997 RMK A01 T00161027  RH  073%=      5-min Rain = 0
KSB1 230705Z 25021G26KT 02/M03 A2996 RMK A01 T00161029  RH  072%=      5-min Rain = 0
KSB1 230706Z 24022KT 02/M03 A2996 RMK A01 T00171032  RH  070%=      5-min Rain = 0
KSB1 230707Z 24017KT 02/M03 A2996 RMK A01 T00171033  RH  070%=      5-min Rain = 0
KSB1 230708Z 26015KT 02/M03 A2997 RMK A01 T00171031  RH  070%=      5-min Rain = 0
KSB1 230709Z 24015G25KT 02/M03 A2997 RMK A01 T00171028  RH  072%=      5-min Rain = 0
KSB1 230710Z 24019G26KT 02/M03 A2996 RMK A01 T00171031  RH  070%=      5-min Rain = 0
KSB1 230711Z 25020KT 02/M03 A2997 RMK A01 T00181032  RH  070%=      5-min Rain = 0
KSB1 230712Z 27018KT 02/M03 A2997 RMK A01 T00171033  RH  069%=      5-min Rain = 0
KSB1 230713Z 26019KT 02/M03 A2997 RMK A01 T00181033  RH  069%=      5-min Rain = 0
KSB1 230714Z 26019KT 02/M03 A2997 RMK A01 T00181034  RH  069%=      5-min Rain = 0
KSB1 230715Z 26017G23KT 02/M03 A2997 RMK A01 T00181034  RH  069%=      5-min Rain = 0
KSB1 230716Z 26019G24KT 02/M03 A2997 RMK A01 T00181033  RH  069%=      5-min Rain = 0
KSB1 230717Z 27020KT 02/M03 A2997 RMK A01 T00181033  RH  069%=      5-min Rain = 0
KSB1 230718Z 27022KT 02/M04 A2998 RMK A01 T00181035  RH  068%=      5-min Rain = 0
KSB1 230719Z 25018G24KT 02/M03 A2998 RMK A01 T00181034  RH  069%=      5-min Rain = 0
KSB1 230720Z 25017KT 02/M03 A2998 RMK A01 T00181032  RH  070%=      5-min Rain = 0
KSB1 230721Z 27017KT 02/M03 A2998 RMK A01 T00171031  RH  070%=      5-min Rain = 0
KSB1 230722Z 27017KT 02/M03 A2998 RMK A01 T00171031  RH  071%=      5-min Rain = 0
KSB1 230723Z 26018KT 02/M03 A2998 RMK A01 T00171032  RH  070%=      5-min Rain = 0
KSB1 230724Z 26019KT 02/M03 A2998 RMK A01 T00171034  RH  069%=      5-min Rain = 0
KSB1 230725Z 26017G22KT 02/M04 A2998 RMK A01 T00171036  RH  068%=      5-min Rain = 0
KSB1 230726Z 26019G31KT 02/M04 A2998 RMK A01 T00181036  RH  068%=      5-min Rain = 0
KSB1 230727Z 26017KT 02/M04 A2998 RMK A01 T00181037  RH  067%=      5-min Rain = 0
KSB1 230728Z 26018KT 02/M04 A2998 RMK A01 T00181036  RH  068%=      5-min Rain = 0
KSB1 230729Z 26015KT 02/M04 A2998 RMK A01 T00171036  RH  068%=      5-min Rain = 0
KSB1 230730Z 26017KT 02/M04 A2998 RMK A01 T00171035  RH  068%=      5-min Rain = 0
KSB1 230731Z 27014KT 02/M03 A2998 RMK A01 T00171034  RH  069%=      5-min Rain = 0
KSB1 230732Z 27016G24KT 02/M03 A2998 RMK A01 T00171034  RH  069%=      5-min Rain = 0
KSB1 230733Z 27017G22KT 02/M03 A2999 RMK A01 T00171034  RH  069%=      5-min Rain = 0
KSB1 230734Z 26016G22KT 02/M03 A2998 RMK A01 T00171033  RH  069%=      5-min Rain = 0
KSB1 230735Z 26018G24KT 02/M04 A2998 RMK A01 T00171038  RH  067%=      5-min Rain = 0
KSB1 230736Z 26014KT 02/M04 A2999 RMK A01 T00181038  RH  067%=      5-min Rain = 0
KSB1 230737Z 26013G18KT 02/M04 A2999 RMK A01 T00181035  RH  068%=      5-min Rain = 0
KSB1 230738Z 26016KT 02/M03 A2999 RMK A01 T00171034  RH  069%=      5-min Rain = 0
KSB1 230739Z 25020G25KT 02/M03 A2999 RMK A01 T00161034  RH  069%=      5-min Rain = 0
KSB1 230740Z 26021G26KT 02/M04 A2998 RMK A01 T00161037  RH  068%=      5-min Rain = 0
KSB1 230741Z 27023KT 02/M04 A2998 RMK A01 T00171041  RH  065%=      5-min Rain = 0
KSB1 230742Z 26024KT 02/M04 A2998 RMK A01 T00181043  RH  064%=      5-min Rain = 0
KSB1 230743Z 26017G24KT 02/M04 A2999 RMK A01 T00181040  RH  065%=      5-min Rain = 0
KSB1 230744Z 26018KT 02/M04 A2998 RMK A01 T00171040  RH  066%=      5-min Rain = 0
KSB1 230745Z 27020G26KT 02/M04 A2999 RMK A01 T00171041  RH  065%=      5-min Rain = 0
KSB1 230746Z 28021G27KT 02/M04 A2999 RMK A01 T00171042  RH  065%=      5-min Rain = 0
KSB1 230747Z 27018KT 02/M04 A2999 RMK A01 T00171041  RH  065%=      5-min Rain = 0
KSB1 230748Z 27017G23KT 02/M04 A2999 RMK A01 T00171039  RH  066%=      5-min Rain = 0
KSB1 230749Z 27018KT 02/M04 A2999 RMK A01 T00171040  RH  066%=      5-min Rain = 0
KSB1 230750Z 27014KT 02/M04 A2999 RMK A01 T00161040  RH  066%=      5-min Rain = 0
KSB1 230751Z 27021G29KT 02/M04 A2999 RMK A01 T00161041  RH  066%=      5-min Rain = 0
KSB1 230752Z 27016G21KT 02/M04 A2999 RMK A01 T00161042  RH  066%=      5-min Rain = 0
KSB1 230753Z 27024G30KT 02/M04 A2999 RMK A01 T00151042  RH  066%=      5-min Rain = 0
KSB1 230754Z 27021KT 02/M04 A2999 RMK A01 T00151044  RH  065%=      5-min Rain = 0
KSB1 230755Z 27024G30KT 02/M04 A2998 RMK A01 T00161044  RH  065%=      5-min Rain = 0
KSB1 230756Z 27019G25KT 02/M05 A2999 RMK A01 T00161045  RH  064%=      5-min Rain = 0
KSB1 230757Z 28023G30KT 02/M04 A2999 RMK A01 T00161043  RH  065%=      5-min Rain = 0
KSB1 230758Z 28026KT 02/M04 A2998 RMK A01 T00151044  RH  064%=      5-min Rain = 0
KSB1 230759Z 26022G29KT 02/M05 A2999 RMK A01 T00161046  RH  064%=      5-min Rain = 0
KSB1 230800Z 26026KT 02/M05 A2998 RMK A01 T00151047  RH  063%=      5-min Rain = 0
KSB1 230801Z 27023G29KT 02/M05 A2999 RMK A01 T00151048  RH  063%=      5-min Rain = 0
KSB1 230802Z 27021G27KT 02/M05 A2999 RMK A01 T00151047  RH  063%=      5-min Rain = 0
KSB1 230803Z 26020KT 02/M05 A2999 RMK A01 T00151047  RH  063%=      5-min Rain = 0
KSB1 230804Z 26020G26KT 02/M05 A2999 RMK A01 T00151048  RH  063%=      5-min Rain = 0
KSB1 230805Z 26016KT 02/M05 A2999 RMK A01 T00151047  RH  063%=      5-min Rain = 0
KSB1 230806Z 27016KT 01/M05 A2999 RMK A01 T00141047  RH  064%=      5-min Rain = 0
KSB1 230807Z 27015KT 01/M05 A2999 RMK A01 T00141046  RH  064%=      5-min Rain = 0
KSB1 230808Z 26018G26KT 01/M05 A2999 RMK A01 T00131045  RH  065%=      5-min Rain = 0
KSB1 230809Z 27018G25KT 01/M05 A2999 RMK A01 T00131050  RH  063%=      5-min Rain = 0
KSB1 230810Z 27015G20KT 01/M05 A2999 RMK A01 T00131051  RH  062%=      5-min Rain = 0
KSB1 230811Z 27021G28KT 01/M05 A2999 RMK A01 T00141050  RH  063%=      5-min Rain = 0
KSB1 230812Z 28028G36KT 01/M05 A2999 RMK A01 T00141052  RH  062%=      5-min Rain = 0
KSB1 230813Z 27026KT 01/M05 A2999 RMK A01 T00141053  RH  061%=      5-min Rain = 0
KSB1 230814Z 27021KT 01/M05 A2999 RMK A01 T00141053  RH  061%=      5-min Rain = 0
KSB1 230815Z 28019G25KT 01/M05 A30 RMK A01 T00141052  RH  062%=      5-min Rain = 0
KSB1 230816Z 27022G27KT 01/M05 A30 RMK A01 T00131052  RH  062%=      5-min Rain = 0
KSB1 230817Z 27024G30KT 01/M05 A30 RMK A01 T00131053  RH  061%=      5-min Rain = 0
KSB1 230818Z 28026G32KT 01/M06 A30 RMK A01 T00131055  RH  061%=      5-min Rain = 0
KSB1 230819Z 28022G29KT 01/M06 A30 RMK A01 T00131056  RH  060%=      5-min Rain = 0
KSB1 230820Z 28020G28KT 01/M06 A30 RMK A01 T00131055  RH  061%=      5-min Rain = 0
KSB1 230821Z 27019KT 01/M05 A30 RMK A01 T00121054  RH  061%=      5-min Rain = 0
KSB1 230822Z 27019G24KT 01/M05 A30 RMK A01 T00121054  RH  062%=      5-min Rain = 0
KSB1 230823Z 27018KT 01/M06 A30 RMK A01 T00111055  RH  061%=      5-min Rain = 0
KSB1 230824Z 27017KT 01/M06 A30 RMK A01 T00111056  RH  061%=      5-min Rain = 0
KSB1 230825Z 28018G23KT 01/M06 A3001 RMK A01 T00111055  RH  062%=      5-min Rain = 0
KSB1 230826Z 28019G28KT 01/M05 A3001 RMK A01 T00111054  RH  062%=      5-min Rain = 0
KSB1 230827Z 27023KT 01/M06 A30 RMK A01 T00101055  RH  062%=      5-min Rain = 0
KSB1 230828Z 28021G26KT 01/M06 A30 RMK A01 T00111057  RH  061%=      5-min Rain = 0
KSB1 230829Z 27023KT 01/M06 A3001 RMK A01 T00111057  RH  061%=      5-min Rain = 0
KSB1 230830Z 28020G27KT 01/M06 A3001 RMK A01 T00111056  RH  061%=      5-min Rain = 0
KSB1 230831Z 27023KT 01/M06 A3001 RMK A01 T00111056  RH  061%=      5-min Rain = 0
KSB1 230832Z 28020G26KT 01/M06 A3001 RMK A01 T00111056  RH  061%=      5-min Rain = 0
KSB1 230833Z 28017KT 01/M06 A3001 RMK A01 T00111056  RH  061%=      5-min Rain = 0
KSB1 230834Z 28017G22KT 01/M06 A3001 RMK A01 T00101055  RH  062%=      5-min Rain = 0
KSB1 230835Z 28017KT 01/M05 A3001 RMK A01 T00091054  RH  063%=      5-min Rain = 0
KSB1 230836Z 28016G22KT 01/M05 A3001 RMK A01 T00091054  RH  063%=      5-min Rain = 0
KSB1 230837Z 28014KT 01/M05 A3001 RMK A01 T00081054  RH  063%=      5-min Rain = 0
KSB1 230838Z 27019KT 01/M05 A3001 RMK A01 T00081054  RH  063%=      5-min Rain = 0
KSB1 230839Z 28017G22KT 01/M06 A3001 RMK A01 T00081055  RH  063%=      5-min Rain = 0
KSB1 230840Z 28012KT 01/M05 A3002 RMK A01 T00081054  RH  063%=      5-min Rain = 0
KSB1 230841Z 29015KT 01/M05 A3001 RMK A01 T00081053  RH  064%=      5-min Rain = 0
KSB1 230842Z 28015KT 01/M05 A3001 RMK A01 T00081053  RH  064%=      5-min Rain = 0
KSB1 230843Z 29013G18KT 01/M05 A3001 RMK A01 T00081052  RH  064%=      5-min Rain = 0
KSB1 230844Z 29016G21KT 01/M05 A3001 RMK A01 T00071052  RH  064%=      5-min Rain = 0
KSB1 230845Z 28020G26KT 01/M05 A3001 RMK A01 T00071053  RH  064%=      5-min Rain = 0
KSB1 230846Z 27021G26KT 01/M05 A3001 RMK A01 T00071054  RH  063%=      5-min Rain = 0
KSB1 230847Z 29015G23KT 01/M05 A3001 RMK A01 T00081054  RH  063%=      5-min Rain = 0
KSB1 230848Z 29013KT 01/M05 A3001 RMK A01 T00071053  RH  064%=      5-min Rain = 0
KSB1 230849Z 29013KT 01/M05 A3001 RMK A01 T00071053  RH  064%=      5-min Rain = 0
KSB1 230850Z 28016KT 01/M05 A3001 RMK A01 T00071053  RH  064%=      5-min Rain = 0
KSB1 230851Z 29013KT 01/M05 A3001 RMK A01 T00061053  RH  065%=      5-min Rain = 0
KSB1 230852Z 30014KT 01/M05 A3001 RMK A01 T00061052  RH  065%=      5-min Rain = 0
KSB1 230853Z 29018KT 01/M05 A3001 RMK A01 T00061053  RH  065%=      5-min Rain = 0
KSB1 230854Z 29016G22KT 01/M05 A3001 RMK A01 T00061054  RH  064%=      5-min Rain = 0
KSB1 230855Z 30014G23KT 01/M05 A3001 RMK A01 T00071054  RH  064%=      5-min Rain = 0
KSB1 230856Z 29015KT 01/M05 A3001 RMK A01 T00071053  RH  064%=      5-min Rain = 0
KSB1 230857Z 29014KT 01/M05 A30 RMK A01 T00061053  RH  064%=      5-min Rain = 0
KSB1 230858Z 29013G20KT 01/M05 A3001 RMK A01 T00061054  RH  064%=      5-min Rain = 0
KSB1 230859Z 30016G22KT 01/M05 A3001 RMK A01 T00061053  RH  064%=      5-min Rain = 0
KSB1 230900Z 29014KT 01/M05 A3001 RMK A01 T00061054  RH  064%=      5-min Rain = 0
KSB1 230901Z 28016KT 01/M05 A3001 RMK A01 T00061054  RH  064%=      5-min Rain = 0
KSB1 230902Z 29016KT 01/M05 A30 RMK A01 T00061054  RH  064%=      5-min Rain = 0
KSB1 230903Z 28015KT 01/M05 A30 RMK A01 T00061054  RH  064%=      5-min Rain = 0
KSB1 230904Z 28014KT 01/M05 A30 RMK A01 T00051054  RH  064%=      5-min Rain = 0
KSB1 230905Z 28017KT 00/M05 A30 RMK A01 T00041054  RH  065%=      5-min Rain = 0
KSB1 230906Z 28017G22KT 00/M06 A30 RMK A01 T00041056  RH  064%=      5-min Rain = 0
KSB1 230907Z 28014KT 01/M06 A30 RMK A01 T00051056  RH  064%=      5-min Rain = 0
KSB1 230908Z 28014KT 01/M06 A30 RMK A01 T00051055  RH  064%=      5-min Rain = 0
KSB1 230909Z 28017KT 01/M06 A30 RMK A01 T00051055  RH  064%=      5-min Rain = 0
KSB1 230910Z 29019KT 01/M06 A30 RMK A01 T00051056  RH  063%=      5-min Rain = 0
KSB1 230911Z 29015G20KT 01/M06 A30 RMK A01 T00061058  RH  062%=      5-min Rain = 0
KSB1 230912Z 29011KT 01/M06 A30 RMK A01 T00061057  RH  063%=      5-min Rain = 0
KSB1 230913Z 28012KT 01/M06 A30 RMK A01 T00051056  RH  064%=      5-min Rain = 0
KSB1 230914Z 28013KT 01/M06 A30 RMK A01 T00051056  RH  064%=      5-min Rain = 0
KSB1 230915Z 28013KT 00/M06 A30 RMK A01 T00041056  RH  064%=      5-min Rain = 0
KSB1 230916Z 28015G20KT 00/M06 A30 RMK A01 T00041056  RH  064%=      5-min Rain = 0
KSB1 230917Z 28014G20KT 00/M06 A30 RMK A01 T00041056  RH  064%=      5-min Rain = 0
KSB1 230918Z 28012KT 00/M06 A3001 RMK A01 T00041056  RH  064%=      5-min Rain = 0
KSB1 230919Z 28014KT 00/M06 A30 RMK A01 T00031056  RH  065%=      5-min Rain = 0
KSB1 230920Z 28017G23KT 00/M06 A30 RMK A01 T00031056  RH  064%=      5-min Rain = 0
KSB1 230921Z 28018G23KT 00/M06 A30 RMK A01 T00041057  RH  064%=      5-min Rain = 0
KSB1 230922Z 27021G30KT 00/M06 A30 RMK A01 T00041058  RH  063%=      5-min Rain = 0
KSB1 230923Z 27020KT 01/M06 A30 RMK A01 T00051059  RH  062%=      5-min Rain = 0
KSB1 230924Z 28017G23KT 01/M06 A30 RMK A01 T00061060  RH  061%=      5-min Rain = 0
KSB1 230925Z 28020G25KT 01/M06 A30 RMK A01 T00061060  RH  061%=      5-min Rain = 0
KSB1 230926Z 28015KT 01/M06 A30 RMK A01 T00061060  RH  061%=      5-min Rain = 0
KSB1 230927Z 27017G23KT 01/M06 A30 RMK A01 T00051059  RH  062%=      5-min Rain = 0
KSB1 230928Z 27013G18KT 01/M06 A30 RMK A01 T00051058  RH  063%=      5-min Rain = 0
KSB1 230929Z 28014KT 00/M06 A30 RMK A01 T00041058  RH  063%=      5-min Rain = 0
KSB1 230930Z 28015KT 00/M06 A30 RMK A01 T00031057  RH  064%=      5-min Rain = 0
KSB1 230931Z 27015G21KT 00/M06 A30 RMK A01 T00031057  RH  064%=      5-min Rain = 0
KSB1 230932Z 27017KT 00/M06 A30 RMK A01 T00031057  RH  064%=      5-min Rain = 0
KSB1 230933Z 28023G29KT 00/M06 A30 RMK A01 T00031059  RH  063%=      5-min Rain = 0
KSB1 230934Z 28026G33KT 01/M06 A30 RMK A01 T00051062  RH  061%=      5-min Rain = 0
KSB1 230935Z 28023G28KT 01/M06 A30 RMK A01 T00071063  RH  059%=      5-min Rain = 0
KSB1 230936Z 27019KT 01/M06 A30 RMK A01 T00081063  RH  059%=      5-min Rain = 0
KSB1 230937Z 27019KT 01/M06 A30 RMK A01 T00071063  RH  059%=      5-min Rain = 0
KSB1 230938Z 28019G24KT 01/M06 A30 RMK A01 T00071063  RH  060%=      5-min Rain = 0
KSB1 230939Z 28020G28KT 01/M06 A30 RMK A01 T00061063  RH  060%=      5-min Rain = 0
KSB1 230940Z 27023G29KT 01/M06 A30 RMK A01 T00061063  RH  060%=      5-min Rain = 0
KSB1 230941Z 28024KT 01/M06 A30 RMK A01 T00061063  RH  059%=      5-min Rain = 0
KSB1 230942Z 28024G34KT 01/M06 A30 RMK A01 T00071064  RH  059%=      5-min Rain = 0
KSB1 230943Z 27022G30KT 01/M06 A30 RMK A01 T00071063  RH  059%=      5-min Rain = 0
KSB1 230944Z 28020KT 01/M06 A30 RMK A01 T00071063  RH  060%=      5-min Rain = 0
KSB1 230945Z 28018G24KT 01/M06 A30 RMK A01 T00071063  RH  060%=      5-min Rain = 0
KSB1 230946Z 28019G25KT 01/M06 A30 RMK A01 T00061062  RH  060%=      5-min Rain = 0
KSB1 230947Z 27019G25KT 01/M06 A30 RMK A01 T00061062  RH  061%=      5-min Rain = 0
KSB1 230948Z 27021G27KT 01/M06 A30 RMK A01 T00051061  RH  061%=      5-min Rain = 0
KSB1 230949Z 28020KT 01/M06 A30 RMK A01 T00051061  RH  061%=      5-min Rain = 0
KSB1 230950Z 27023G31KT 01/M06 A2999 RMK A01 T00051061  RH  061%=      5-min Rain = 0
KSB1 230951Z 28024G30KT 01/M06 A30 RMK A01 T00061063  RH  060%=      5-min Rain = 0
KSB1 230952Z 28022G28KT 01/M06 A2999 RMK A01 T00061063  RH  060%=      5-min Rain = 0
KSB1 230953Z 28023KT 01/M06 A2999 RMK A01 T00061063  RH  060%=      5-min Rain = 0
KSB1 230954Z 28021G29KT 01/M06 A2999 RMK A01 T00061064  RH  059%=      5-min Rain = 0
KSB1 230955Z 28023G31KT 01/M06 A2999 RMK A01 T00061064  RH  059%=      5-min Rain = 0
KSB1 230956Z 28022G29KT 01/M07 A2999 RMK A01 T00071065  RH  059%=      5-min Rain = 0
KSB1 230957Z 28020G27KT 01/M07 A2999 RMK A01 T00061065  RH  059%=      5-min Rain = 0
KSB1 230958Z 27024KT 01/M06 A2999 RMK A01 T00071063  RH  059%=      5-min Rain = 0
KSB1 230959Z 28023G33KT 01/M06 A2999 RMK A01 T00061063  RH  060%=      5-min Rain = 0
KSB1 231000Z 28021G26KT 01/M06 A2999 RMK A01 T00061062  RH  060%=      5-min Rain = 0
KSB1 231001Z 28023KT 01/M06 A2999 RMK A01 T00051063  RH  060%=      5-min Rain = 0
KSB1 231002Z 27023KT 01/M06 A2999 RMK A01 T00061064  RH  060%=      5-min Rain = 0
KSB1 231003Z 28021G26KT 01/M06 A2999 RMK A01 T00051063  RH  060%=      5-min Rain = 0
KSB1 231004Z 29020G26KT 01/M06 A2999 RMK A01 T00051062  RH  061%=      5-min Rain = 0
KSB1 231005Z 29023G30KT 01/M06 A2999 RMK A01 T00051061  RH  061%=      5-min Rain = 0
KSB1 231006Z 29021G29KT 01/M06 A2999 RMK A01 T00051061  RH  061%=      5-min Rain = 0
KSB1 231007Z 28025G31KT 01/M06 A2999 RMK A01 T00051061  RH  061%=      5-min Rain = 0
KSB1 231008Z 28026KT 01/M06 A2999 RMK A01 T00051062  RH  061%=      5-min Rain = 0
KSB1 231009Z 28022G31KT 01/M06 A2999 RMK A01 T00051062  RH  061%=      5-min Rain = 0
KSB1 231010Z 28019G29KT 00/M06 A2999 RMK A01 T00041060  RH  062%=      5-min Rain = 0
KSB1 231011Z 28025G34KT 00/M06 A2999 RMK A01 T00031060  RH  062%=      5-min Rain = 0
KSB1 231012Z 29026G32KT 00/M06 A2999 RMK A01 T00041062  RH  061%=      5-min Rain = 0
KSB1 231013Z 28019G27KT 01/M06 A2999 RMK A01 T00051062  RH  061%=      5-min Rain = 0
KSB1 231014Z 29019KT 00/M06 A2999 RMK A01 T00041061  RH  062%=      5-min Rain = 0
KSB1 231015Z 28024G29KT 00/M06 A2999 RMK A01 T00041062  RH  062%=      5-min Rain = 0
KSB1 231016Z 29021G27KT 00/M06 A2999 RMK A01 T00041063  RH  061%=      5-min Rain = 0
KSB1 231017Z 28021G26KT 00/M06 A2999 RMK A01 T00041064  RH  060%=      5-min Rain = 0
KSB1 231018Z 29022G29KT 00/M06 A2999 RMK A01 T00041064  RH  060%=      5-min Rain = 0
KSB1 231019Z 29020G28KT 01/M06 A2999 RMK A01 T00051064  RH  060%=      5-min Rain = 0
KSB1 231020Z 28024KT 01/M07 A2999 RMK A01 T00051065  RH  060%=      5-min Rain = 0
KSB1 231021Z 29021G27KT 01/M07 A2999 RMK A01 T00051065  RH  059%=      5-min Rain = 0
KSB1 231022Z 29024G32KT 01/M07 A2999 RMK A01 T00051065  RH  060%=      5-min Rain = 0
KSB1 231023Z 29019G25KT 01/M07 A2999 RMK A01 T00051066  RH  059%=      5-min Rain = 0
KSB1 231024Z 29017G23KT 01/M07 A2999 RMK A01 T00051066  RH  059%=      5-min Rain = 0
KSB1 231025Z 28019G27KT 01/M07 A2999 RMK A01 T00051065  RH  059%=      5-min Rain = 0
KSB1 231026Z 28019KT 00/M07 A2999 RMK A01 T00041066  RH  059%=      5-min Rain = 0
KSB1 231027Z 29018KT 01/M07 A2999 RMK A01 T00051065  RH  059%=      5-min Rain = 0
KSB1 231028Z 29023KT 01/M07 A2999 RMK A01 T00051065  RH  059%=      5-min Rain = 0
KSB1 231029Z 29021G28KT 01/M07 A2999 RMK A01 T00051067  RH  059%=      5-min Rain = 0
KSB1 231030Z 28017KT 01/M07 A2999 RMK A01 T00051068  RH  058%=      5-min Rain = 0
KSB1 231031Z 28023G29KT 01/M07 A2999 RMK A01 T00051068  RH  058%=      5-min Rain = 0
KSB1 231032Z 29019G24KT 01/M07 A30 RMK A01 T00051068  RH  058%=      5-min Rain = 0
KSB1 231033Z 29021G27KT 01/M07 A2999 RMK A01 T00051068  RH  058%=      5-min Rain = 0
KSB1 231034Z 29020KT 01/M07 A30 RMK A01 T00051068  RH  058%=      5-min Rain = 0
KSB1 231035Z 29018G28KT 01/M07 A30 RMK A01 T00051068  RH  058%=      5-min Rain = 0
KSB1 231036Z 29015G22KT 01/M07 A30 RMK A01 T00051067  RH  059%=      5-min Rain = 0
KSB1 231037Z 29015G24KT 00/M07 A30 RMK A01 T00041066  RH  060%=      5-min Rain = 0
KSB1 231038Z 29022G30KT 00/M07 A30 RMK A01 T00031066  RH  060%=      5-min Rain = 0
KSB1 231039Z 28018G26KT 00/M07 A30 RMK A01 T00041066  RH  059%=      5-min Rain = 0
KSB1 231040Z 28020G27KT 00/M07 A30 RMK A01 T00041066  RH  060%=      5-min Rain = 0
KSB1 231041Z 28025G33KT 00/M07 A30 RMK A01 T00031066  RH  059%=      5-min Rain = 0
KSB1 231042Z 28022G27KT 00/M07 A30 RMK A01 T00041067  RH  059%=      5-min Rain = 0
KSB1 231043Z 27021G26KT 00/M07 A30 RMK A01 T00041066  RH  059%=      5-min Rain = 0
KSB1 231044Z 27026G31KT 00/M07 A2999 RMK A01 T00031066  RH  060%=      5-min Rain = 0
KSB1 231045Z 27023G31KT 00/M07 A2999 RMK A01 T00031067  RH  059%=      5-min Rain = 0
KSB1 231046Z 28021G29KT 00/M07 A2999 RMK A01 T00031066  RH  060%=      5-min Rain = 0
KSB1 231047Z 28021G28KT 00/M07 A2999 RMK A01 T00031065  RH  060%=      5-min Rain = 0
KSB1 231048Z 27025KT 00/M07 A2999 RMK A01 T00031066  RH  060%=      5-min Rain = 0
KSB1 231049Z 27021KT 00/M07 A2999 RMK A01 T00031066  RH  060%=      5-min Rain = 0
KSB1 231050Z 27024G30KT 00/M07 A2999 RMK A01 T00021067  RH  060%=      5-min Rain = 0
KSB1 231051Z 27017G25KT 00/M07 A2999 RMK A01 T00031067  RH  059%=      5-min Rain = 0
KSB1 231052Z 27025G31KT 00/M07 A2999 RMK A01 T00021066  RH  060%=      5-min Rain = 0
KSB1 231053Z 26022G28KT 00/M07 A2999 RMK A01 T00021067  RH  060%=      5-min Rain = 0
KSB1 231054Z 27018KT 00/M07 A2999 RMK A01 T00021066  RH  060%=      5-min Rain = 0
KSB1 231055Z 27021G26KT 00/M07 A2999 RMK A01 T00021066  RH  060%=      5-min Rain = 0
KSB1 231056Z 27022G28KT 00/M07 A2998 RMK A01 T00021066  RH  060%=      5-min Rain = 0
KSB1 231057Z 26024G31KT 00/M07 A2998 RMK A01 T00021066  RH  060%=      5-min Rain = 0
KSB1 231058Z 27019G26KT 00/M07 A2999 RMK A01 T00021067  RH  060%=      5-min Rain = 0
KSB1 231059Z 27022G30KT 00/M07 A2998 RMK A01 T00021066  RH  060%=      5-min Rain = 0
KSB1 231100Z 27025G31KT 00/M07 A2998 RMK A01 T00021067  RH  060%=      5-min Rain = 0
KSB1 231101Z 28023KT 00/M07 A2999 RMK A01 T00021067  RH  060%=      5-min Rain = 0
KSB1 231102Z 28027G33KT 00/M07 A2999 RMK A01 T00021066  RH  060%=      5-min Rain = 0
KSB1 231103Z 28022G27KT 00/M07 A2999 RMK A01 T00031067  RH  060%=      5-min Rain = 0
KSB1 231104Z 29019G25KT 00/M07 A30 RMK A01 T00031066  RH  060%=      5-min Rain = 0
KSB1 231105Z 28024G33KT 00/M07 A2999 RMK A01 T00021066  RH  060%=      5-min Rain = 0
KSB1 231106Z 28019KT 00/M07 A30 RMK A01 T00021067  RH  060%=      5-min Rain = 0
KSB1 231107Z 28023KT 00/M07 A30 RMK A01 T00021066  RH  060%=      5-min Rain = 0
KSB1 231108Z 28024G29KT 00/M07 A30 RMK A01 T00021067  RH  060%=      5-min Rain = 0
KSB1 231109Z 28021G28KT 00/M07 A30 RMK A01 T00021067  RH  060%=      5-min Rain = 0
KSB1 231110Z 28020G28KT 00/M07 A30 RMK A01 T00021067  RH  060%=      5-min Rain = 0
KSB1 231111Z 28018G23KT 00/M07 A30 RMK A01 T00021066  RH  060%=      5-min Rain = 0
KSB1 231112Z 29016KT 00/M07 A3001 RMK A01 T00011065  RH  061%=      5-min Rain = 0
KSB1 231113Z 28017G22KT 00/M07 A3001 RMK A01 T00011065  RH  061%=      5-min Rain = 0
KSB1 231114Z 28018KT 00/M07 A3001 RMK A01 T00011065  RH  061%=      5-min Rain = 0
KSB1 231115Z 28016KT 00/M07 A3001 RMK A01 T00011065  RH  061%=      5-min Rain = 0
KSB1 231116Z 28018KT 00/07 A3001 RMK A01 T00000-65  RH  061%=      5-min Rain = 0
KSB1 231117Z 28020G27KT 00/07 A3001 RMK A01 T00000-66  RH  061%=      5-min Rain = 0
KSB1 231118Z 29023G29KT 00/M07 A3001 RMK A01 T00011067  RH  060%=      5-min Rain = 0
KSB1 231119Z 29024G32KT 00/M07 A3001 RMK A01 T00031068  RH  059%=      5-min Rain = 0
KSB1 231120Z 28024G31KT 00/M07 A3001 RMK A01 T00031068  RH  059%=      5-min Rain = 0
KSB1 231121Z 29023G31KT 00/M07 A3001 RMK A01 T00041069  RH  058%=      5-min Rain = 0
KSB1 231122Z 29017KT 00/M07 A3002 RMK A01 T00041069  RH  058%=      5-min Rain = 0
KSB1 231123Z 29020G28KT 00/M07 A3002 RMK A01 T00031068  RH  059%=      5-min Rain = 0
KSB1 231124Z 29018G23KT 00/M07 A3002 RMK A01 T00031068  RH  059%=      5-min Rain = 0
KSB1 231125Z 29021KT 00/M07 A3002 RMK A01 T00021067  RH  060%=      5-min Rain = 0
KSB1 231126Z 30017KT 00/M07 A3002 RMK A01 T00021068  RH  059%=      5-min Rain = 0
KSB1 231127Z 29019KT 00/M07 A3002 RMK A01 T00021067  RH  060%=      5-min Rain = 0
KSB1 231128Z 29017KT 00/M07 A3002 RMK A01 T00021068  RH  060%=      5-min Rain = 0
KSB1 231129Z 29019KT 00/M07 A3001 RMK A01 T00021068  RH  059%=      5-min Rain = 0
KSB1 231130Z 29021G29KT 00/M07 A3001 RMK A01 T00021068  RH  059%=      5-min Rain = 0
KSB1 231131Z 30019G24KT 00/M07 A3001 RMK A01 T00021067  RH  060%=      5-min Rain = 0
KSB1 231132Z 29017KT 00/M07 A3002 RMK A01 T00021067  RH  060%=      5-min Rain = 0
KSB1 231133Z 29020G27KT 00/M07 A3002 RMK A01 T00011067  RH  060%=      5-min Rain = 0
KSB1 231134Z 29020G27KT 00/M07 A3002 RMK A01 T00011067  RH  060%=      5-min Rain = 0
KSB1 231135Z 29015KT 00/M07 A3002 RMK A01 T00011067  RH  060%=      5-min Rain = 0
KSB1 231136Z 29017KT 00/M07 A3002 RMK A01 T00011066  RH  060%=      5-min Rain = 0
KSB1 231137Z 29016G22KT 00/M07 A3002 RMK A01 T00011066  RH  061%=      5-min Rain = 0
KSB1 231138Z 29018G24KT 00/07 A3002 RMK A01 T00000-65  RH  061%=      5-min Rain = 0
KSB1 231139Z 29016KT 00/07 A3002 RMK A01 T00000-65  RH  061%=      5-min Rain = 0
KSB1 231140Z 29017G22KT 00/07 A3002 RMK A01 T00000-65  RH  062%=      5-min Rain = 0
KSB1 231141Z 30017G24KT 00/07 A3002 RMK A01 T00-00-66  RH  061%=      5-min Rain = 0
KSB1 231142Z 29017KT 00/07 A3003 RMK A01 T00000-66  RH  061%=      5-min Rain = 0
KSB1 231143Z 29021KT 00/M07 A3002 RMK A01 T00011066  RH  061%=      5-min Rain = 0
KSB1 231144Z 30020KT 00/M07 A3003 RMK A01 T00011067  RH  060%=      5-min Rain = 0
KSB1 231145Z 30017G23KT 00/M07 A3003 RMK A01 T00011067  RH  060%=      5-min Rain = 0
KSB1 231146Z 30018G24KT 00/M07 A3003 RMK A01 T00011067  RH  060%=      5-min Rain = 0
KSB1 231147Z 30021G27KT 00/M07 A3003 RMK A01 T00011067  RH  060%=      5-min Rain = 0
KSB1 231148Z 30017KT 00/M07 A3003 RMK A01 T00021067  RH  060%=      5-min Rain = 0
KSB1 231149Z 29025G30KT 00/M07 A3003 RMK A01 T00021068  RH  060%=      5-min Rain = 0
KSB1 231150Z 30019G29KT 00/M07 A3004 RMK A01 T00021069  RH  059%=      5-min Rain = 0
KSB1 231151Z 30021G27KT 00/M07 A3004 RMK A01 T00031068  RH  059%=      5-min Rain = 0
KSB1 231152Z 29021KT 00/M07 A3004 RMK A01 T00031068  RH  059%=      5-min Rain = 0
KSB1 231153Z 29015G22KT 00/M07 A3004 RMK A01 T00031069  RH  059%=      5-min Rain = 0
KSB1 231154Z 29015G21KT 00/M07 A3004 RMK A01 T00031068  RH  059%=      5-min Rain = 0
KSB1 231155Z 29018KT 00/M07 A3004 RMK A01 T00021068  RH  059%=      5-min Rain = 0
KSB1 231156Z 29018G23KT 00/M07 A3004 RMK A01 T00021068  RH  059%=      5-min Rain = 0
KSB1 231157Z 29017G22KT 00/M07 A3004 RMK A01 T00021069  RH  059%=      5-min Rain = 0
KSB1 231158Z 29019G25KT 00/M07 A3004 RMK A01 T00021069  RH  059%=      5-min Rain = 0
KSB1 231159Z 29017G23KT 00/M07 A3004 RMK A01 T00021069  RH  059%=      5-min Rain = 0
KSB1 231200Z 29021G26KT 00/M07 A3004 RMK A01 T00021070  RH  058%=      5-min Rain = 0
KSB1 231201Z 29018G24KT 00/M07 A3004 RMK A01 T00031070  RH  058%=      5-min Rain = 0
KSB1 231202Z 29024KT 00/M07 A3004 RMK A01 T00031070  RH  058%=      5-min Rain = 0
KSB1 231203Z 29024G30KT 00/M07 A3003 RMK A01 T00031070  RH  058%=      5-min Rain = 0
KSB1 231204Z 30020KT 00/M07 A3003 RMK A01 T00031070  RH  058%=      5-min Rain = 0
KSB1 231205Z 29020G26KT 00/M07 A3004 RMK A01 T00031069  RH  058%=      5-min Rain = 0
KSB1 231206Z 29023G33KT 00/M07 A3003 RMK A01 T00031069  RH  059%=      5-min Rain = 0
KSB1 231207Z 29021KT 00/M07 A3003 RMK A01 T00031069  RH  059%=      5-min Rain = 0
KSB1 231208Z 29019KT 00/M07 A3003 RMK A01 T00021068  RH  059%=      5-min Rain = 0
KSB1 231209Z 29020G29KT 00/M07 A3003 RMK A01 T00021068  RH  059%=      5-min Rain = 0
KSB1 231210Z 29019G26KT 00/M07 A3003 RMK A01 T00021067  RH  060%=      5-min Rain = 0
KSB1 231211Z 29024G33KT 00/M07 A3003 RMK A01 T00011067  RH  060%=      5-min Rain = 0
KSB1 231212Z 29025G33KT 00/M07 A3003 RMK A01 T00011068  RH  060%=      5-min Rain = 0
KSB1 231213Z 30024G31KT 00/M07 A3003 RMK A01 T00021068  RH  059%=      5-min Rain = 0
KSB1 231214Z 29023G29KT 00/M07 A3003 RMK A01 T00021068  RH  059%=      5-min Rain = 0
KSB1 231215Z 29022KT 00/M07 A3003 RMK A01 T00021069  RH  059%=      5-min Rain = 0
KSB1 231216Z 29019G25KT 00/M07 A3003 RMK A01 T00021068  RH  059%=      5-min Rain = 0
KSB1 231217Z 29026G34KT 00/M07 A3003 RMK A01 T00021068  RH  060%=      5-min Rain = 0
KSB1 231218Z 29024G35KT 00/M07 A3003 RMK A01 T00011067  RH  060%=      5-min Rain = 0
KSB1 231219Z 29022G29KT 00/M07 A3003 RMK A01 T00011067  RH  060%=      5-min Rain = 0
KSB1 231220Z 29020KT 00/M07 A3003 RMK A01 T00011067  RH  060%=      5-min Rain = 0
KSB1 231221Z 29027G33KT 00/07 A3003 RMK A01 T00000-66  RH  061%=      5-min Rain = 0
KSB1 231222Z 29026G31KT 00/07 A3003 RMK A01 T00000-67  RH  061%=      5-min Rain = 0
KSB1 231223Z 29020G25KT 00/07 A3003 RMK A01 T00000-67  RH  060%=      5-min Rain = 0
KSB1 231224Z 30021KT 00/07 A3003 RMK A01 T00000-67  RH  061%=      5-min Rain = 0
KSB1 231225Z 29020G25KT 00/07 A3003 RMK A01 T00-00-66  RH  061%=      5-min Rain = 0
KSB1 231226Z 29022G29KT 00/07 A3003 RMK A01 T00-00-66  RH  061%=      5-min Rain = 0
KSB1 231227Z 29027G35KT M00/M07 A3003 RMK A01 T10011067  RH  061%=      5-min Rain = 0
KSB1 231228Z 29028G34KT 00/07 A3003 RMK A01 T00-00-67  RH  061%=      5-min Rain = 0
KSB1 231229Z 29024G29KT 00/07 A3003 RMK A01 T00000-67  RH  060%=      5-min Rain = 0
KSB1 231230Z 30020G26KT 00/07 A3003 RMK A01 T00000-67  RH  061%=      5-min Rain = 0
KSB1 231231Z 29022KT M00/M07 A3003 RMK A01 T10011066  RH  061%=      5-min Rain = 0
KSB1 231232Z 29023G32KT M00/M07 A3003 RMK A01 T10011066  RH  062%=      5-min Rain = 0
KSB1 231233Z 28020G26KT M00/M07 A3003 RMK A01 T10011066  RH  062%=      5-min Rain = 0
KSB1 231234Z 29021G31KT M00/M07 A3003 RMK A01 T10011066  RH  062%=      5-min Rain = 0
KSB1 231235Z 29022G28KT M00/M07 A3003 RMK A01 T10011067  RH  061%=      5-min Rain = 0
KSB1 231236Z 29019G24KT M00/M07 A3003 RMK A01 T10011067  RH  061%=      5-min Rain = 0
KSB1 231237Z 29017G22KT M00/M07 A3004 RMK A01 T10011066  RH  062%=      5-min Rain = 0
KSB1 231238Z 29019KT M00/M07 A3004 RMK A01 T10021066  RH  062%=      5-min Rain = 0
KSB1 231239Z 29024G30KT M00/M07 A3003 RMK A01 T10021066  RH  062%=      5-min Rain = 0
KSB1 231240Z 29020G26KT M00/M07 A3003 RMK A01 T10021066  RH  062%=      5-min Rain = 0
KSB1 231241Z 29019G24KT M00/M07 A3004 RMK A01 T10011066  RH  062%=      5-min Rain = 0
KSB1 231242Z 29022G29KT M00/M07 A3004 RMK A01 T10021067  RH  062%=      5-min Rain = 0
KSB1 231243Z 29022G28KT M00/M07 A3004 RMK A01 T10011067  RH  061%=      5-min Rain = 0
KSB1 231244Z 29021G26KT M00/M07 A3004 RMK A01 T10011067  RH  061%=      5-min Rain = 0
KSB1 231245Z 29020KT 00/07 A3004 RMK A01 T00-00-67  RH  061%=      5-min Rain = 0
KSB1 231246Z 29019G27KT 00/07 A3004 RMK A01 T00-00-67  RH  061%=      5-min Rain = 0
KSB1 231247Z 29022G30KT 00/07 A3004 RMK A01 T00-00-68  RH  060%=      5-min Rain = 0
KSB1 231248Z 29020G26KT 00/07 A3004 RMK A01 T00-00-68  RH  060%=      5-min Rain = 0
KSB1 231249Z 30018G23KT 00/07 A3004 RMK A01 T00-00-68  RH  060%=      5-min Rain = 0
KSB1 231250Z 29021G32KT M00/M07 A3004 RMK A01 T10011068  RH  060%=      5-min Rain = 0
KSB1 231251Z 29017G24KT M00/M07 A3004 RMK A01 T10011068  RH  060%=      5-min Rain = 0
KSB1 231252Z 29021KT 00/07 A3004 RMK A01 T00-00-68  RH  060%=      5-min Rain = 0
KSB1 231253Z 29015G21KT M00/M07 A3004 RMK A01 T10011068  RH  060%=      5-min Rain = 0
KSB1 231254Z 29020G25KT 00/07 A3004 RMK A01 T00-00-68  RH  060%=      5-min Rain = 0
KSB1 231255Z 30019G27KT M00/M07 A3004 RMK A01 T10011069  RH  060%=      5-min Rain = 0
KSB1 231256Z 29018G23KT M00/M07 A3004 RMK A01 T10011069  RH  060%=      5-min Rain = 0
KSB1 231257Z 29017G22KT M00/M07 A3004 RMK A01 T10011069  RH  060%=      5-min Rain = 0
KSB1 231258Z 29015KT M00/M07 A3004 RMK A01 T10011069  RH  060%=      5-min Rain = 0
KSB1 231259Z 29023G34KT M00/M07 A3003 RMK A01 T10011068  RH  060%=      5-min Rain = 0
KSB1 231300Z 29019KT M00/M07 A3004 RMK A01 T10011068  RH  060%=      5-min Rain = 0
KSB1 231301Z 29019G25KT 00/07 A3004 RMK A01 T00-00-68  RH  060%=      5-min Rain = 0
KSB1 231302Z 29018G24KT M00/M07 A3004 RMK A01 T10011068  RH  061%=      5-min Rain = 0
KSB1 231303Z 29018G27KT M00/M07 A3004 RMK A01 T10011068  RH  061%=      5-min Rain = 0
KSB1 231304Z 30016G22KT M00/M07 A3004 RMK A01 T10011067  RH  061%=      5-min Rain = 0
KSB1 231305Z 30023G36KT M00/M07 A3004 RMK A01 T10021068  RH  061%=      5-min Rain = 0
KSB1 231306Z 29021KT M00/M07 A3004 RMK A01 T10011068  RH  061%=      5-min Rain = 0
KSB1 231307Z 29016G21KT M00/M07 A3004 RMK A01 T10011067  RH  061%=      5-min Rain = 0
KSB1 231308Z 30015KT M00/M07 A3004 RMK A01 T10021067  RH  061%=      5-min Rain = 0
KSB1 231309Z 29019G28KT M00/M07 A3004 RMK A01 T10021067  RH  062%=      5-min Rain = 0
KSB1 231310Z 29021G28KT M00/M07 A3004 RMK A01 T10031067  RH  062%=      5-min Rain = 0
KSB1 231311Z 29017G27KT M00/M07 A3004 RMK A01 T10021067  RH  062%=      5-min Rain = 0
KSB1 231312Z 29021G30KT M00/M07 A3004 RMK A01 T10021067  RH  062%=      5-min Rain = 0
KSB1 231313Z 29019G26KT M00/M07 A3004 RMK A01 T10021068  RH  061%=      5-min Rain = 0
KSB1 231314Z 30021G27KT M00/M07 A3005 RMK A01 T10021068  RH  061%=      5-min Rain = 0
KSB1 231315Z 29021G31KT M00/M07 A3005 RMK A01 T10021068  RH  061%=      5-min Rain = 0
KSB1 231316Z 30017G22KT M00/M07 A3005 RMK A01 T10021068  RH  061%=      5-min Rain = 0
KSB1 231317Z 29015KT M00/M07 A3005 RMK A01 T10021068  RH  061%=      5-min Rain = 0
KSB1 231318Z 28018G26KT M00/M07 A3005 RMK A01 T10021067  RH  061%=      5-min Rain = 0
KSB1 231319Z 30016G23KT M00/M07 A3005 RMK A01 T10031068  RH  062%=      5-min Rain = 0
KSB1 231320Z 30021G33KT M00/M07 A3005 RMK A01 T10031068  RH  061%=      5-min Rain = 0
KSB1 231321Z 29024KT M00/M07 A3005 RMK A01 T10021068  RH  061%=      5-min Rain = 0
KSB1 231322Z 29016G24KT M00/M07 A3006 RMK A01 T10021068  RH  061%=      5-min Rain = 0
KSB1 231323Z 28020G30KT M00/M07 A3006 RMK A01 T10021068  RH  061%=      5-min Rain = 0
KSB1 231324Z 28019G25KT M00/M07 A3006 RMK A01 T10021068  RH  061%=      5-min Rain = 0
KSB1 231325Z 29014G21KT M00/M07 A3006 RMK A01 T10021068  RH  061%=      5-min Rain = 0
KSB1 231326Z 28016G21KT M00/M07 A3006 RMK A01 T10021068  RH  061%=      5-min Rain = 0
KSB1 231327Z 29015G21KT M00/M07 A3006 RMK A01 T10021068  RH  061%=      5-min Rain = 0
KSB1 231328Z 29019G25KT M00/M07 A3006 RMK A01 T10021068  RH  061%=      5-min Rain = 0
KSB1 231329Z 29020G25KT M00/M07 A3006 RMK A01 T10021069  RH  061%=      5-min Rain = 0
KSB1 231330Z 28015G26KT M00/M07 A3007 RMK A01 T10021069  RH  061%=      5-min Rain = 0
KSB1 231331Z 29019G26KT M00/M07 A3006 RMK A01 T10021069  RH  061%=      5-min Rain = 0
KSB1 231332Z 28020G30KT M00/M07 A3006 RMK A01 T10021069  RH  060%=      5-min Rain = 0
KSB1 231333Z 28022G27KT M00/M07 A3006 RMK A01 T10011069  RH  060%=      5-min Rain = 0
KSB1 231334Z 29015G20KT M00/M07 A3007 RMK A01 T10011070  RH  060%=      5-min Rain = 0
KSB1 231335Z 28019KT M00/M07 A3007 RMK A01 T10011069  RH  060%=      5-min Rain = 0
KSB1 231336Z 29017G25KT M00/M07 A3007 RMK A01 T10011070  RH  060%=      5-min Rain = 0
KSB1 231337Z 29018G26KT M00/M07 A3007 RMK A01 T10011069  RH  060%=      5-min Rain = 0
KSB1 231338Z 30014G22KT M00/M07 A3007 RMK A01 T10011069  RH  060%=      5-min Rain = 0
KSB1 231339Z 29012G17KT M00/M07 A3007 RMK A01 T10011070  RH  060%=      5-min Rain = 0
KSB1 231340Z 29014G23KT 00/07 A3007 RMK A01 T00-00-69  RH  060%=      5-min Rain = 0
KSB1 231341Z 29017G26KT 00/07 A3007 RMK A01 T00-00-68  RH  060%=      5-min Rain = 0
KSB1 231342Z 30009KT 00/07 A3008 RMK A01 T00-00-68  RH  060%=      5-min Rain = 0
KSB1 231343Z 31010G15KT M00/M07 A3008 RMK A01 T10011068  RH  061%=      5-min Rain = 0
KSB1 231344Z 29014KT M00/M07 A3008 RMK A01 T10011068  RH  061%=      5-min Rain = 0
KSB1 231345Z 31012KT M00/M07 A3008 RMK A01 T10011068  RH  061%=      5-min Rain = 0
KSB1 231346Z 30013KT M00/M07 A3008 RMK A01 T10021068  RH  061%=      5-min Rain = 0
KSB1 231347Z 31012G18KT M00/M07 A3008 RMK A01 T10011068  RH  061%=      5-min Rain = 0
KSB1 231348Z 30011G16KT M00/M07 A3008 RMK A01 T10011068  RH  061%=      5-min Rain = 0
KSB1 231349Z 31015KT M00/M07 A3008 RMK A01 T10011068  RH  060%=      5-min Rain = 0
KSB1 231350Z 31015G21KT M00/M07 A3008 RMK A01 T10011068  RH  060%=      5-min Rain = 0
KSB1 231351Z 31014G20KT M00/M07 A3008 RMK A01 T10011068  RH  060%=      5-min Rain = 0
KSB1 231352Z 30012KT 00/07 A3009 RMK A01 T00-00-68  RH  060%=      5-min Rain = 0
KSB1 231353Z 30009KT 00/07 A3008 RMK A01 T00000-68  RH  060%=      5-min Rain = 0
KSB1 231354Z 31008G13KT 00/07 A3008 RMK A01 T00-00-68  RH  060%=      5-min Rain = 0
KSB1 231355Z 31011KT 00/07 A3009 RMK A01 T00000-68  RH  060%=      5-min Rain = 0
KSB1 231356Z 31009KT 00/07 A3009 RMK A01 T00-00-68  RH  060%=      5-min Rain = 0
KSB1 231357Z 31010G15KT 00/07 A3008 RMK A01 T00-00-68  RH  060%=      5-min Rain = 0
KSB1 231358Z 31011KT 00/07 A3008 RMK A01 T00000-68  RH  060%=      5-min Rain = 0
KSB1 231359Z 31011G16KT 00/M07 A3008 RMK A01 T00011068  RH  060%=      5-min Rain = 0
KSB1 231400Z 30015G22KT 00/M07 A3008 RMK A01 T00011068  RH  060%=      5-min Rain = 0
KSB1 231401Z 31017G25KT 00/M07 A3008 RMK A01 T00011068  RH  060%=      5-min Rain = 0
KSB1 231402Z 32013KT 00/M07 A3008 RMK A01 T00021068  RH  060%=      5-min Rain = 0
KSB1 231403Z 32015KT 00/M07 A3008 RMK A01 T00021068  RH  060%=      5-min Rain = 0
KSB1 231404Z 31014G19KT 00/M07 A3009 RMK A01 T00021068  RH  059%=      5-min Rain = 0
KSB1 231405Z 32018KT 00/M07 A3008 RMK A01 T00021068  RH  059%=      5-min Rain = 0
KSB1 231406Z 33018G23KT 00/M07 A3008 RMK A01 T00021068  RH  059%=      5-min Rain = 0
KSB1 231407Z 32018KT 00/M07 A3009 RMK A01 T00021068  RH  059%=      5-min Rain = 0
KSB1 231408Z 32015KT 00/M07 A3009 RMK A01 T00031068  RH  059%=      5-min Rain = 0
KSB1 231409Z 31018G29KT 00/M07 A3009 RMK A01 T00031068  RH  059%=      5-min Rain = 0
KSB1 231410Z 33013KT 00/M07 A3009 RMK A01 T00031067  RH  059%=      5-min Rain = 0
KSB1 231411Z 31013KT 00/M07 A3009 RMK A01 T00031066  RH  060%=      5-min Rain = 0
KSB1 231412Z 31013G19KT 00/M07 A3009 RMK A01 T00031066  RH  060%=      5-min Rain = 0
KSB1 231413Z 33016G22KT 00/M07 A3009 RMK A01 T00031066  RH  060%=      5-min Rain = 0
KSB1 231414Z 32014G20KT 00/M07 A301 RMK A01 T00031066  RH  060%=      5-min Rain = 0
KSB1 231415Z 31013KT 00/M07 A301 RMK A01 T00031066  RH  060%=      5-min Rain = 0
KSB1 231416Z 31013KT 00/M07 A301 RMK A01 T00031066  RH  060%=      5-min Rain = 0
KSB1 231417Z 30010G15KT 00/M07 A301 RMK A01 T00031066  RH  060%=      5-min Rain = 0
KSB1 231418Z 31015G21KT 00/M07 A301 RMK A01 T00031066  RH  060%=      5-min Rain = 0
KSB1 231419Z 31013KT 00/M07 A301 RMK A01 T00031067  RH  059%=      5-min Rain = 0
KSB1 231420Z 32013KT 00/M07 A301 RMK A01 T00041067  RH  059%=      5-min Rain = 0
KSB1 231421Z 31015G23KT 00/M07 A301 RMK A01 T00041068  RH  058%=      5-min Rain = 0
KSB1 231422Z 32012G18KT 01/M07 A3011 RMK A01 T00051069  RH  058%=      5-min Rain = 0
KSB1 231423Z 29009KT 01/M07 A3011 RMK A01 T00051069  RH  057%=      5-min Rain = 0
KSB1 231424Z 29007KT 01/M07 A3011 RMK A01 T00061069  RH  057%=      5-min Rain = 0
KSB1 231425Z 30014G19KT 01/M07 A3011 RMK A01 T00061070  RH  057%=      5-min Rain = 0
KSB1 231426Z 32011G17KT 01/M07 A3012 RMK A01 T00071070  RH  057%=      5-min Rain = 0
KSB1 231427Z 32012G19KT 01/M07 A3012 RMK A01 T00071070  RH  056%=      5-min Rain = 0
KSB1 231428Z 33014KT 01/M07 A3011 RMK A01 T00071069  RH  057%=      5-min Rain = 0
KSB1 231429Z 31012KT 01/M07 A3012 RMK A01 T00071069  RH  056%=      5-min Rain = 0
KSB1 231430Z 31013G18KT 01/M07 A3012 RMK A01 T00081069  RH  056%=      5-min Rain = 0
KSB1 231431Z 31014G21KT 01/M07 A3012 RMK A01 T00081070  RH  056%=      5-min Rain = 0
KSB1 231432Z 32012KT 01/M07 A3012 RMK A01 T00081070  RH  056%=      5-min Rain = 0
KSB1 231433Z 29013KT 01/M07 A3013 RMK A01 T00081069  RH  056%=      5-min Rain = 0
KSB1 231434Z 32009G14KT 01/M07 A3013 RMK A01 T00081069  RH  056%=      5-min Rain = 0
KSB1 231435Z 33011KT 01/M07 A3013 RMK A01 T00091068  RH  056%=      5-min Rain = 0
KSB1 231436Z 32013KT 01/M07 A3013 RMK A01 T00091068  RH  056%=      5-min Rain = 0
KSB1 231437Z 32013G18KT 01/M07 A3013 RMK A01 T00091068  RH  056%=      5-min Rain = 0
KSB1 231438Z 32013KT 01/M07 A3013 RMK A01 T00101067  RH  056%=      5-min Rain = 0
KSB1 231439Z 32014G19KT 01/M07 A3013 RMK A01 T00101068  RH  056%=      5-min Rain = 0
KSB1 231440Z 31011KT 01/M07 A3013 RMK A01 T00101067  RH  056%=      5-min Rain = 0
KSB1 231441Z 33014G19KT 01/M07 A3013 RMK A01 T00101067  RH  056%=      5-min Rain = 0
KSB1 231442Z 33012KT 01/M07 A3013 RMK A01 T00111066  RH  057%=      5-min Rain = 0
KSB1 231443Z 33010G15KT 01/M07 A3014 RMK A01 T00111065  RH  057%=      5-min Rain = 0
KSB1 231444Z 32013KT 01/M06 A3014 RMK A01 T00111064  RH  057%=      5-min Rain = 0
KSB1 231445Z 31018KT 01/M07 A3014 RMK A01 T00101067  RH  056%=      5-min Rain = 0
KSB1 231446Z 32012G18KT 01/M07 A3014 RMK A01 T00101069  RH  056%=      5-min Rain = 0
KSB1 231447Z 35009KT 01/M07 A3014 RMK A01 T00101067  RH  056%=      5-min Rain = 0
KSB1 231448Z 32012KT 01/M07 A3014 RMK A01 T00101065  RH  057%=      5-min Rain = 0
KSB1 231449Z 31014KT 01/M07 A3014 RMK A01 T00101066  RH  057%=      5-min Rain = 0
KSB1 231450Z 35007G13KT 01/M07 A3014 RMK A01 T00111067  RH  056%=      5-min Rain = 0
KSB1 231451Z 33010KT 01/M06 A3014 RMK A01 T00111064  RH  057%=      5-min Rain = 0
KSB1 231452Z 33009KT 01/M06 A3014 RMK A01 T00121064  RH  057%=      5-min Rain = 0
KSB1 231453Z 31008KT 01/M06 A3015 RMK A01 T00121064  RH  057%=      5-min Rain = 0
KSB1 231454Z 34007KT 01/M06 A3015 RMK A01 T00121064  RH  057%=      5-min Rain = 0
KSB1 231455Z 32013G18KT 01/M06 A3015 RMK A01 T00131063  RH  057%=      5-min Rain = 0
KSB1 231456Z 32013KT 01/M07 A3015 RMK A01 T00121065  RH  056%=      5-min Rain = 0
KSB1 231457Z 32009KT 01/M06 A3015 RMK A01 T00121064  RH  057%=      5-min Rain = 0
KSB1 231458Z 33013G18KT 01/M06 A3015 RMK A01 T00121062  RH  058%=      5-min Rain = 0
KSB1 231459Z 32016KT 01/M06 A3015 RMK A01 T00121062  RH  058%=      5-min Rain = 0
KSB1 231500Z 31017KT 01/M06 A3015 RMK A01 T00121062  RH  058%=      5-min Rain = 0
KSB1 231501Z 30020G25KT 01/M06 A3015 RMK A01 T00121063  RH  058%=      5-min Rain = 0
KSB1 231502Z 31016G23KT 01/M06 A3015 RMK A01 T00111064  RH  057%=      5-min Rain = 0
KSB1 231503Z 31017KT 01/M06 A3015 RMK A01 T00111064  RH  057%=      5-min Rain = 0
KSB1 231504Z 31015KT 01/M06 A3015 RMK A01 T00111064  RH  057%=      5-min Rain = 0
KSB1 231505Z 32015G21KT 01/M06 A3015 RMK A01 T00111063  RH  058%=      5-min Rain = 0
KSB1 231506Z 31016KT 01/M06 A3015 RMK A01 T00111063  RH  058%=      5-min Rain = 0
KSB1 231507Z 32015G20KT 01/M06 A3015 RMK A01 T00121063  RH  058%=      5-min Rain = 0
KSB1 231508Z 31012KT 01/M06 A3015 RMK A01 T00121063  RH  057%=      5-min Rain = 0
KSB1 231509Z 31014G21KT 01/M06 A3015 RMK A01 T00121063  RH  057%=      5-min Rain = 0
KSB1 231510Z 32015KT 01/M06 A3015 RMK A01 T00121062  RH  058%=      5-min Rain = 0
KSB1 231511Z 32015KT 01/M06 A3016 RMK A01 T00121062  RH  058%=      5-min Rain = 0
KSB1 231512Z 31017KT 01/M06 A3016 RMK A01 T00131061  RH  058%=      5-min Rain = 0
KSB1 231513Z 31013KT 01/M06 A3016 RMK A01 T00131061  RH  058%=      5-min Rain = 0
KSB1 231514Z 33010KT 01/M06 A3016 RMK A01 T00131060  RH  058%=      5-min Rain = 0
KSB1 231515Z 32010KT 01/M06 A3016 RMK A01 T00141059  RH  058%=      5-min Rain = 0
KSB1 231516Z 33011G16KT 01/M06 A3016 RMK A01 T00141058  RH  058%=      5-min Rain = 0
KSB1 231517Z 33010KT 01/M06 A3016 RMK A01 T00131059  RH  059%=      5-min Rain = 0
KSB1 231518Z 34008KT 01/M06 A3017 RMK A01 T00121058  RH  059%=      5-min Rain = 0
KSB1 231519Z 33008KT 01/M06 A3017 RMK A01 T00121058  RH  060%=      5-min Rain = 0
KSB1 231520Z 33010KT 01/M06 A3017 RMK A01 T00121057  RH  060%=      5-min Rain = 0
KSB1 231521Z 33009KT 01/M06 A3017 RMK A01 T00131057  RH  060%=      5-min Rain = 0
KSB1 231522Z 33010KT 01/M06 A3017 RMK A01 T00141057  RH  059%=      5-min Rain = 0
KSB1 231523Z 31009KT 01/M06 A3017 RMK A01 T00131058  RH  059%=      5-min Rain = 0
KSB1 231524Z 31014G20KT 01/M06 A3017 RMK A01 T00131058  RH  059%=      5-min Rain = 0
KSB1 231525Z 31015KT 01/M06 A3017 RMK A01 T00111059  RH  059%=      5-min Rain = 0
KSB1 231526Z 31016G22KT 01/M06 A3017 RMK A01 T00111060  RH  059%=      5-min Rain = 0
KSB1 231527Z 31018G23KT 01/M06 A3017 RMK A01 T00111059  RH  060%=      5-min Rain = 0
KSB1 231528Z 31018G25KT 01/M06 A3017 RMK A01 T00111060  RH  059%=      5-min Rain = 0
KSB1 231529Z 31017KT 01/M06 A3017 RMK A01 T00121059  RH  059%=      5-min Rain = 0
KSB1 231530Z 31015G21KT 01/M06 A3017 RMK A01 T00121060  RH  059%=      5-min Rain = 0
KSB1 231531Z 31013KT 01/M06 A3017 RMK A01 T00121060  RH  059%=      5-min Rain = 0
KSB1 231532Z 32011KT 01/M06 A3017 RMK A01 T00121058  RH  059%=      5-min Rain = 0
KSB1 231533Z 31013KT 01/M06 A3017 RMK A01 T00141058  RH  059%=      5-min Rain = 0
KSB1 231534Z 30011KT 01/M06 A3018 RMK A01 T00141058  RH  059%=      5-min Rain = 0
KSB1 231535Z 29013KT 01/M06 A3018 RMK A01 T00121060  RH  059%=      5-min Rain = 0
KSB1 231536Z 31009KT 01/M06 A3018 RMK A01 T00121059  RH  059%=      5-min Rain = 0
KSB1 231537Z 31011KT 01/M06 A3018 RMK A01 T00121058  RH  059%=      5-min Rain = 0
KSB1 231538Z 32014KT 01/M06 A3018 RMK A01 T00131059  RH  059%=      5-min Rain = 0
KSB1 231539Z 34008KT 01/M06 A3018 RMK A01 T00121057  RH  060%=      5-min Rain = 0
KSB1 231540Z 33005KT 01/M06 A3018 RMK A01 T00121055  RH  061%=      5-min Rain = 0
KSB1 231541Z 33007KT 01/M05 A3018 RMK A01 T00131054  RH  061%=      5-min Rain = 0
KSB1 231542Z 30009KT 02/M05 A3018 RMK A01 T00151054  RH  060%=      5-min Rain = 0
KSB1 231543Z 33009KT 02/M06 A3018 RMK A01 T00151055  RH  060%=      5-min Rain = 0
KSB1 231544Z 31007KT 02/M05 A3018 RMK A01 T00161053  RH  060%=      5-min Rain = 0
KSB1 231545Z 32010KT 02/M06 A3018 RMK A01 T00161055  RH  059%=      5-min Rain = 0
KSB1 231546Z 29014KT 02/M06 A3018 RMK A01 T00161057  RH  058%=      5-min Rain = 0
KSB1 231547Z 31011G18KT 02/M06 A3018 RMK A01 T00151060  RH  058%=      5-min Rain = 0
KSB1 231548Z 30011KT 01/M06 A3018 RMK A01 T00141058  RH  058%=      5-min Rain = 0
KSB1 231549Z 30013G18KT 02/M05 A3018 RMK A01 T00181054  RH  059%=      5-min Rain = 0
KSB1 231550Z 30012KT 02/M06 A3018 RMK A01 T00191057  RH  057%=      5-min Rain = 0
KSB1 231551Z 29013KT 02/M06 A3018 RMK A01 T00191057  RH  057%=      5-min Rain = 0
KSB1 231552Z 28012KT 02/M06 A3018 RMK A01 T00191058  RH  057%=      5-min Rain = 0
KSB1 231553Z 28011KT 02/M06 A3018 RMK A01 T00181057  RH  057%=      5-min Rain = 0
KSB1 231554Z 29010KT 02/M06 A3018 RMK A01 T00201055  RH  057%=      5-min Rain = 0
KSB1 231555Z 29010KT 02/M06 A3018 RMK A01 T00211055  RH  057%=      5-min Rain = 0
KSB1 231556Z 30014G19KT 02/M05 A3018 RMK A01 T00231054  RH  057%=      5-min Rain = 0
KSB1 231557Z 30011G16KT 02/M06 A3018 RMK A01 T00231056  RH  056%=      5-min Rain = 0
KSB1 231558Z 30014G21KT 02/M06 A3018 RMK A01 T00231057  RH  055%=      5-min Rain = 0
KSB1 231559Z 32015G20KT 02/M06 A3018 RMK A01 T00231056  RH  056%=      5-min Rain = 0
KSB1 231600Z 31017KT 02/M06 A3018 RMK A01 T00221058  RH  055%=      5-min Rain = 0
KSB1 231601Z 30013KT 02/M06 A3018 RMK A01 T00211058  RH  056%=      5-min Rain = 0
KSB1 231602Z 29015KT 02/M06 A3018 RMK A01 T00201058  RH  056%=      5-min Rain = 0
KSB1 231603Z 31012G20KT 02/M06 A3018 RMK A01 T00231055  RH  057%=      5-min Rain = 0
KSB1 231604Z 29015G23KT 03/M06 A3018 RMK A01 T00251056  RH  055%=      5-min Rain = 0
KSB1 231605Z 30016KT 02/M06 A3018 RMK A01 T00241059  RH  054%=      5-min Rain = 0
KSB1 231606Z 30018G24KT 02/M06 A3018 RMK A01 T00231059  RH  055%=      5-min Rain = 0
KSB1 231607Z 30013G18KT 02/M06 A3019 RMK A01 T00221059  RH  055%=      5-min Rain = 0
KSB1 231608Z 29013G18KT 02/M06 A3019 RMK A01 T00231057  RH  055%=      5-min Rain = 0
KSB1 231609Z 30014G19KT 03/M06 A3019 RMK A01 T00251056  RH  055%=      5-min Rain = 0
KSB1 231610Z 29018G24KT 03/M06 A3019 RMK A01 T00261057  RH  055%=      5-min Rain = 0
KSB1 231611Z 28019KT 03/M06 A3018 RMK A01 T00251058  RH  054%=      5-min Rain = 0
KSB1 231612Z 29017G22KT 02/M06 A3019 RMK A01 T00241060  RH  054%=      5-min Rain = 0
KSB1 231613Z 29014KT 02/M06 A3019 RMK A01 T00231058  RH  055%=      5-min Rain = 0
KSB1 231614Z 28015KT 03/M06 A3019 RMK A01 T00251056  RH  055%=      5-min Rain = 0
KSB1 231615Z 28014KT 03/M06 A3018 RMK A01 T00261056  RH  055%=      5-min Rain = 0
KSB1 231616Z 27017KT 03/M06 A3018 RMK A01 T00271056  RH  054%=      5-min Rain = 0
KSB1 231617Z 27014KT 03/M06 A3018 RMK A01 T00261059  RH  054%=      5-min Rain = 0
KSB1 231618Z 28017KT 03/M06 A3018 RMK A01 T00261057  RH  054%=      5-min Rain = 0
KSB1 231619Z 27020G27KT 03/M06 A3018 RMK A01 T00271057  RH  054%=      5-min Rain = 0
KSB1 231620Z 28024G29KT 03/M06 A3018 RMK A01 T00271060  RH  053%=      5-min Rain = 0
KSB1 231621Z 29019KT 03/M06 A3018 RMK A01 T00251061  RH  053%=      5-min Rain = 0
KSB1 231622Z 29016G22KT 03/M06 A3018 RMK A01 T00261060  RH  053%=      5-min Rain = 0
KSB1 231623Z 28017KT 03/M06 A3019 RMK A01 T00271059  RH  053%=      5-min Rain = 0
KSB1 231624Z 30011KT 03/M06 A3019 RMK A01 T00281058  RH  053%=      5-min Rain = 0
KSB1 231625Z 29018G28KT 03/M06 A3019 RMK A01 T00311056  RH  053%=      5-min Rain = 0
KSB1 231626Z 29016G22KT 03/M06 A3019 RMK A01 T00301059  RH  052%=      5-min Rain = 0
KSB1 231627Z 28018KT 03/M06 A3019 RMK A01 T00291058  RH  053%=      5-min Rain = 0
KSB1 231628Z 27019G26KT 03/M06 A3019 RMK A01 T00301058  RH  052%=      5-min Rain = 0
KSB1 231629Z 28021G27KT 03/M06 A3019 RMK A01 T00291060  RH  052%=      5-min Rain = 0
KSB1 231630Z 28017G22KT 03/M06 A302 RMK A01 T00291060  RH  052%=      5-min Rain = 0
KSB1 231631Z 28020G26KT 03/M06 A302 RMK A01 T00291060  RH  052%=      5-min Rain = 0
KSB1 231632Z 28021KT 03/M06 A302 RMK A01 T00291060  RH  052%=      5-min Rain = 0
KSB1 231633Z 28019G24KT 03/M06 A302 RMK A01 T00271061  RH  052%=      5-min Rain = 0
KSB1 231634Z 28018G23KT 03/M06 A302 RMK A01 T00261061  RH  053%=      5-min Rain = 0
KSB1 231635Z 29013KT 03/M06 A302 RMK A01 T00251061  RH  053%=      5-min Rain = 0
KSB1 231636Z 28018KT 03/M06 A302 RMK A01 T00271057  RH  054%=      5-min Rain = 0
KSB1 231637Z 29017KT 03/M06 A302 RMK A01 T00291056  RH  054%=      5-min Rain = 0
KSB1 231638Z 28014G19KT 03/M06 A302 RMK A01 T00301058  RH  053%=      5-min Rain = 0
KSB1 231639Z 29011KT 03/M06 A3021 RMK A01 T00291058  RH  053%=      5-min Rain = 0
KSB1 231640Z 28011KT 03/M06 A3021 RMK A01 T00311056  RH  053%=      5-min Rain = 0
KSB1 231641Z 30009KT 03/M06 A3021 RMK A01 T00321056  RH  053%=      5-min Rain = 0
KSB1 231642Z 29011KT 04/M05 A302 RMK A01 T00351052  RH  053%=      5-min Rain = 0
KSB1 231643Z 28011KT 04/M05 A302 RMK A01 T00371051  RH  053%=      5-min Rain = 0
KSB1 231644Z 27013KT 04/M05 A302 RMK A01 T00391051  RH  052%=      5-min Rain = 0
KSB1 231645Z 27011KT 04/M05 A302 RMK A01 T00391052  RH  052%=      5-min Rain = 0
KSB1 231646Z 28011KT 04/M05 A302 RMK A01 T00391050  RH  052%=      5-min Rain = 0
KSB1 231647Z 29013G21KT 04/M05 A3021 RMK A01 T00411051  RH  051%=      5-min Rain = 0
KSB1 231648Z 28016KT 04/M06 A302 RMK A01 T00411055  RH  050%=      5-min Rain = 0
KSB1 231649Z 28016G24KT 04/M06 A302 RMK A01 T00391056  RH  050%=      5-min Rain = 0
KSB1 231650Z 30019G25KT 04/M06 A302 RMK A01 T00391056  RH  050%=      5-min Rain = 0
KSB1 231651Z 29015G21KT 04/M06 A302 RMK A01 T00381057  RH  050%=      5-min Rain = 0
KSB1 231652Z 28013G19KT 04/M05 A302 RMK A01 T00391054  RH  051%=      5-min Rain = 0
KSB1 231653Z 28019G24KT 04/M05 A302 RMK A01 T00401054  RH  050%=      5-min Rain = 0
KSB1 231654Z 27013G20KT 04/M06 A302 RMK A01 T00381057  RH  050%=      5-min Rain = 0
KSB1 231655Z 27019G26KT 04/M05 A302 RMK A01 T00401053  RH  051%=      5-min Rain = 0
KSB1 231656Z 27021KT 04/M06 A302 RMK A01 T00391057  RH  049%=      5-min Rain = 0
KSB1 231657Z 27018KT 04/M06 A302 RMK A01 T00361060  RH  049%=      5-min Rain = 0
KSB1 231658Z 28023KT 04/M06 A302 RMK A01 T00371057  RH  050%=      5-min Rain = 0
KSB1 231659Z 28021KT 04/M06 A302 RMK A01 T00361058  RH  050%=      5-min Rain = 0
KSB1 231700Z 28018G23KT 03/M06 A302 RMK A01 T00341059  RH  051%=      5-min Rain = 0
KSB1 231701Z 28014G21KT 04/M06 A3021 RMK A01 T00361056  RH  051%=      5-min Rain = 0
KSB1 231702Z 28016G21KT 04/M06 A3021 RMK A01 T00371058  RH  050%=      5-min Rain = 0
KSB1 231703Z 27018G23KT 04/M06 A3021 RMK A01 T00361059  RH  050%=      5-min Rain = 0
KSB1 231704Z 28015KT 04/M06 A3021 RMK A01 T00351059  RH  050%=      5-min Rain = 0
KSB1 231705Z 27013G19KT 03/M06 A3021 RMK A01 T00341058  RH  051%=      5-min Rain = 0
KSB1 231706Z 29011G17KT 04/M06 A3021 RMK A01 T00361057  RH  051%=      5-min Rain = 0
KSB1 231707Z 28017KT 04/M05 A3021 RMK A01 T00391054  RH  051%=      5-min Rain = 0
KSB1 231708Z 29015G20KT 04/M06 A3021 RMK A01 T00371058  RH  050%=      5-min Rain = 0
KSB1 231709Z 29016KT 04/M06 A3021 RMK A01 T00351058  RH  051%=      5-min Rain = 0
KSB1 231710Z 29013G20KT 04/M06 A3021 RMK A01 T00361056  RH  051%=      5-min Rain = 0
KSB1 231711Z 29016KT 04/M06 A3021 RMK A01 T00361057  RH  051%=      5-min Rain = 0
KSB1 231712Z 28013KT 04/M06 A3021 RMK A01 T00351059  RH  050%=      5-min Rain = 0
KSB1 231713Z 28015KT 04/M06 A3021 RMK A01 T00371055  RH  051%=      5-min Rain = 0
KSB1 231714Z 29012KT 04/M06 A3021 RMK A01 T00401055  RH  050%=      5-min Rain = 0
KSB1 231715Z 29012KT 04/M05 A3022 RMK A01 T00421054  RH  050%=      5-min Rain = 0
KSB1 231716Z 29014KT 04/M06 A3021 RMK A01 T00431055  RH  049%=      5-min Rain = 0
KSB1 231717Z 28016G21KT 04/M06 A3021 RMK A01 T00411056  RH  049%=      5-min Rain = 0
KSB1 231718Z 27015KT 04/M06 A3021 RMK A01 T00401059  RH  049%=      5-min Rain = 0
KSB1 231719Z 27015KT 04/M06 A3021 RMK A01 T00391058  RH  049%=      5-min Rain = 0
KSB1 231720Z 26017KT 04/M06 A3021 RMK A01 T00391057  RH  049%=      5-min Rain = 0
KSB1 231721Z 27020G25KT 04/M06 A3021 RMK A01 T00391060  RH  048%=      5-min Rain = 0
KSB1 231722Z 27017KT 04/M06 A3021 RMK A01 T00391063  RH  047%=      5-min Rain = 0
KSB1 231723Z 27014KT 04/M06 A3021 RMK A01 T00381063  RH  048%=      5-min Rain = 0
KSB1 231724Z 27015G21KT 04/M06 A3021 RMK A01 T00381060  RH  049%=      5-min Rain = 0
KSB1 231725Z 27017KT 04/M06 A3021 RMK A01 T00411058  RH  049%=      5-min Rain = 0
KSB1 231726Z 27019KT 04/M06 A3021 RMK A01 T00421060  RH  048%=      5-min Rain = 0
KSB1 231727Z 27018KT 04/M06 A3021 RMK A01 T00421061  RH  047%=      5-min Rain = 0
KSB1 231728Z 28019KT 04/M06 A3021 RMK A01 T00421063  RH  046%=      5-min Rain = 0
KSB1 231729Z 27016G22KT 04/M06 A3021 RMK A01 T00401064  RH  047%=      5-min Rain = 0
KSB1 231730Z 27018G23KT 04/M06 A3021 RMK A01 T00421061  RH  047%=      5-min Rain = 0
KSB1 231731Z 27018KT 04/M06 A302 RMK A01 T00421062  RH  047%=      5-min Rain = 0
KSB1 231732Z 27017KT 04/M06 A302 RMK A01 T00411061  RH  047%=      5-min Rain = 0
KSB1 231733Z 27016KT 04/M06 A302 RMK A01 T00401061  RH  048%=      5-min Rain = 0
KSB1 231734Z 28016KT 04/M06 A3021 RMK A01 T00411061  RH  047%=      5-min Rain = 0
KSB1 231735Z 26014KT 04/M06 A302 RMK A01 T00401062  RH  047%=      5-min Rain = 0
KSB1 231736Z 26016G22KT 04/M06 A302 RMK A01 T00411060  RH  048%=      5-min Rain = 0
KSB1 231737Z 26015KT 04/M06 A302 RMK A01 T00421062  RH  047%=      5-min Rain = 0
KSB1 231738Z 27018KT 04/M06 A302 RMK A01 T00421062  RH  047%=      5-min Rain = 0
KSB1 231739Z 28018KT 04/M06 A302 RMK A01 T00411063  RH  047%=      5-min Rain = 0
KSB1 231740Z 29017KT 04/M06 A302 RMK A01 T00401062  RH  047%=      5-min Rain = 0
KSB1 231741Z 28015G20KT 04/M06 A302 RMK A01 T00441058  RH  047%=      5-min Rain = 0
KSB1 231742Z 28015KT 05/M06 A302 RMK A01 T00471058  RH  047%=      5-min Rain = 0
KSB1 231743Z 29014KT 05/M06 A302 RMK A01 T00481060  RH  046%=      5-min Rain = 0
KSB1 231744Z 26014G20KT 05/M06 A3019 RMK A01 T00481057  RH  046%=      5-min Rain = 0
KSB1 231745Z 26016G21KT 05/M06 A3019 RMK A01 T00491062  RH  044%=      5-min Rain = 0
KSB1 231746Z 27020G25KT 05/M06 A3019 RMK A01 T00471064  RH  044%=      5-min Rain = 0
KSB1 231747Z 27018G23KT 05/M07 A3019 RMK A01 T00481066  RH  044%=      5-min Rain = 0
KSB1 231748Z 27019G24KT 05/M07 A3019 RMK A01 T00481068  RH  043%=      5-min Rain = 0
KSB1 231749Z 26018G24KT 05/M07 A3019 RMK A01 T00481070  RH  042%=      5-min Rain = 0
KSB1 231750Z 28018G25KT 05/M07 A3019 RMK A01 T00481070  RH  042%=      5-min Rain = 0
KSB1 231751Z 28016KT 05/M07 A3019 RMK A01 T00471070  RH  042%=      5-min Rain = 0
KSB1 231752Z 28019KT 05/M07 A3019 RMK A01 T00501068  RH  042%=      5-min Rain = 0
KSB1 231753Z 27015G21KT 05/M07 A3019 RMK A01 T00501068  RH  042%=      5-min Rain = 0
KSB1 231754Z 27013KT 05/M07 A3019 RMK A01 T00521065  RH  043%=      5-min Rain = 0
KSB1 231755Z 27012KT 06/M06 A3019 RMK A01 T00551062  RH  043%=      5-min Rain = 0
KSB1 231756Z 28014KT 06/M06 A3019 RMK A01 T00571062  RH  042%=      5-min Rain = 0
KSB1 231757Z 28018KT 06/M07 A3019 RMK A01 T00581066  RH  040%=      5-min Rain = 0
KSB1 231758Z 27018KT 05/M07 A3019 RMK A01 T00541072  RH  040%=      5-min Rain = 0
KSB1 231759Z 27018G23KT 05/M07 A3019 RMK A01 T00511072  RH  041%=      5-min Rain = 0
KSB1 231800Z 26023KT 05/M07 A3019 RMK A01 T00501071  RH  041%=      5-min Rain = 0
KSB1 231801Z 26019KT 05/M07 A3019 RMK A01 T00471073  RH  041%=      5-min Rain = 0
KSB1 231802Z 27017KT 05/M07 A3019 RMK A01 T00491069  RH  042%=      5-min Rain = 0
KSB1 231803Z 26021G26KT 05/M07 A3018 RMK A01 T00511070  RH  041%=      5-min Rain = 0
KSB1 231804Z 27020G26KT 05/M07 A3018 RMK A01 T00501070  RH  041%=      5-min Rain = 0
KSB1 231805Z 28021G26KT 05/M07 A3019 RMK A01 T00501070  RH  041%=      5-min Rain = 0
KSB1 231806Z 28020G29KT 05/M07 A3018 RMK A01 T00521071  RH  040%=      5-min Rain = 0
KSB1 231807Z 27022G28KT 05/M07 A3018 RMK A01 T00541072  RH  040%=      5-min Rain = 0
KSB1 231808Z 27022KT 05/M07 A3018 RMK A01 T00531074  RH  039%=      5-min Rain = 0
KSB1 231809Z 26020KT 05/M07 A3018 RMK A01 T00521073  RH  040%=      5-min Rain = 0
KSB1 231810Z 27017G24KT 05/M08 A3018 RMK A01 T00541075  RH  039%=      5-min Rain = 0
KSB1 231811Z 26018G24KT 05/M08 A3017 RMK A01 T00531077  RH  038%=      5-min Rain = 0
KSB1 231812Z 27020G29KT 05/M07 A3018 RMK A01 T00541073  RH  039%=      5-min Rain = 0
KSB1 231813Z 26020G25KT 05/M07 A3017 RMK A01 T00541073  RH  039%=      5-min Rain = 0
KSB1 231814Z 28018G27KT 05/M07 A3017 RMK A01 T00541073  RH  039%=      5-min Rain = 0
KSB1 231815Z 26024G32KT 06/M07 A3017 RMK A01 T00551074  RH  039%=      5-min Rain = 0
KSB1 231816Z 27021G26KT 05/M08 A3017 RMK A01 T00541075  RH  039%=      5-min Rain = 0
KSB1 231817Z 27018G25KT 06/M08 A3018 RMK A01 T00551075  RH  038%=      5-min Rain = 0
KSB1 231818Z 27019G27KT 06/M07 A3018 RMK A01 T00571074  RH  038%=      5-min Rain = 0
KSB1 231819Z 27022G29KT 06/M08 A3017 RMK A01 T00561077  RH  038%=      5-min Rain = 0
KSB1 231820Z 27022G28KT 06/M08 A3018 RMK A01 T00551081  RH  037%=      5-min Rain = 0
KSB1 231821Z 27021G28KT 06/M08 A3018 RMK A01 T00571081  RH  036%=      5-min Rain = 0
KSB1 231822Z 28018G23KT 06/M08 A3018 RMK A01 T00571080  RH  037%=      5-min Rain = 0
KSB1 231823Z 27017KT 06/M08 A3018 RMK A01 T00571077  RH  038%=      5-min Rain = 0
KSB1 231824Z 27019G25KT 06/M08 A3018 RMK A01 T00571076  RH  038%=      5-min Rain = 0
KSB1 231825Z 27017G23KT 06/M07 A3018 RMK A01 T00581074  RH  038%=      5-min Rain = 0
KSB1 231826Z 28020G26KT 06/M07 A3017 RMK A01 T00591073  RH  038%=      5-min Rain = 0
KSB1 231827Z 28017G23KT 06/M07 A3018 RMK A01 T00591072  RH  038%=      5-min Rain = 0
KSB1 231828Z 27017G23KT 06/M07 A3018 RMK A01 T00591073  RH  038%=      5-min Rain = 0
KSB1 231829Z 27019KT 06/M07 A3018 RMK A01 T00591074  RH  038%=      5-min Rain = 0
KSB1 231830Z 28016G22KT 06/M07 A3018 RMK A01 T00561073  RH  039%=      5-min Rain = 0
KSB1 231831Z 30016G21KT 06/M07 A3019 RMK A01 T00611069  RH  039%=      5-min Rain = 0
KSB1 231832Z 29020G26KT 06/M07 A3018 RMK A01 T00601074  RH  037%=      5-min Rain = 0
KSB1 231833Z 28017G22KT 06/M08 A3018 RMK A01 T00601076  RH  037%=      5-min Rain = 0
KSB1 231834Z 29016G23KT 06/M08 A3018 RMK A01 T00581075  RH  038%=      5-min Rain = 0
KSB1 231835Z 29016G24KT 06/M08 A3018 RMK A01 T00581076  RH  038%=      5-min Rain = 0
KSB1 231836Z 29016G25KT 06/M08 A3018 RMK A01 T00591076  RH  037%=      5-min Rain = 0
KSB1 231837Z 28013G22KT 07/M07 A3018 RMK A01 T00651070  RH  038%=      5-min Rain = 0
KSB1 231838Z 27017KT 07/M07 A3018 RMK A01 T00691070  RH  036%=      5-min Rain = 0
KSB1 231839Z 27019G24KT 07/M07 A3017 RMK A01 T00671073  RH  036%=      5-min Rain = 0
KSB1 231840Z 26021G28KT 07/M07 A3017 RMK A01 T00651074  RH  036%=      5-min Rain = 0
KSB1 231841Z 26022G28KT 06/M08 A3016 RMK A01 T00601079  RH  036%=      5-min Rain = 0
KSB1 231842Z 26021G29KT 06/M08 A3016 RMK A01 T00581075  RH  038%=      5-min Rain = 0
KSB1 231843Z 26017G23KT 06/M07 A3017 RMK A01 T00601072  RH  038%=      5-min Rain = 0
KSB1 231844Z 27017G23KT 06/M08 A3017 RMK A01 T00611076  RH  037%=      5-min Rain = 0
KSB1 231845Z 27016KT 06/M08 A3017 RMK A01 T00601080  RH  036%=      5-min Rain = 0
KSB1 231846Z 27016KT 06/M08 A3017 RMK A01 T00621080  RH  035%=      5-min Rain = 0
KSB1 231847Z 26015G20KT 07/M08 A3017 RMK A01 T00651075  RH  036%=      5-min Rain = 0
KSB1 231848Z 27010G15KT 07/M07 A3017 RMK A01 T00681074  RH  036%=      5-min Rain = 0
KSB1 231849Z 26017KT 07/M07 A3017 RMK A01 T00701072  RH  036%=      5-min Rain = 0
KSB1 231850Z 26015G20KT 07/M07 A3017 RMK A01 T00701073  RH  035%=      5-min Rain = 0
KSB1 231851Z 27017KT 07/M08 A3017 RMK A01 T00721075  RH  034%=      5-min Rain = 0
KSB1 231852Z 28014G20KT 07/M08 A3017 RMK A01 T00711077  RH  034%=      5-min Rain = 0
KSB1 231853Z 28019KT 07/M08 A3017 RMK A01 T00711077  RH  034%=      5-min Rain = 0
KSB1 231854Z 27018KT 07/M08 A3016 RMK A01 T00671079  RH  034%=      5-min Rain = 0
KSB1 231855Z 26018KT 07/M08 A3016 RMK A01 T00681077  RH  035%=      5-min Rain = 0
KSB1 231856Z 26019KT 07/M08 A3016 RMK A01 T00681078  RH  035%=      5-min Rain = 0
KSB1 231857Z 27017G23KT 07/M08 A3016 RMK A01 T00661081  RH  034%=      5-min Rain = 0
KSB1 231858Z 27020G25KT 07/M08 A3016 RMK A01 T00661079  RH  035%=      5-min Rain = 0
KSB1 231859Z 27020KT 07/M08 A3016 RMK A01 T00681081  RH  034%=      5-min Rain = 0
KSB1 231900Z 27019G24KT 07/M08 A3016 RMK A01 T00681083  RH  033%=      5-min Rain = 0
KSB1 231901Z 26022KT 07/M08 A3016 RMK A01 T00681081  RH  034%=      5-min Rain = 0
KSB1 231902Z 25021KT 07/M08 A3015 RMK A01 T00661081  RH  034%=      5-min Rain = 0
KSB1 231903Z 25020G25KT 07/M08 A3015 RMK A01 T00661081  RH  034%=      5-min Rain = 0
KSB1 231904Z 24019G24KT 07/M08 A3015 RMK A01 T00661080  RH  034%=      5-min Rain = 0
KSB1 231905Z 26015KT 07/M08 A3015 RMK A01 T00671081  RH  034%=      5-min Rain = 0
KSB1 231906Z 27019KT 07/M08 A3016 RMK A01 T00691080  RH  034%=      5-min Rain = 0
KSB1 231907Z 26020KT 07/M09 A3016 RMK A01 T00681087  RH  032%=      5-min Rain = 0
KSB1 231908Z 27017G22KT 07/M09 A3016 RMK A01 T00661091  RH  032%=      5-min Rain = 0
KSB1 231909Z 26020G27KT 07/M09 A3016 RMK A01 T00671089  RH  032%=      5-min Rain = 0
KSB1 231910Z 27020KT 07/M09 A3016 RMK A01 T00681091  RH  031%=      5-min Rain = 0
KSB1 231911Z 27016G21KT 07/M09 A3016 RMK A01 T00681087  RH  032%=      5-min Rain = 0
KSB1 231912Z 26023G29KT 07/M09 A3015 RMK A01 T00701086  RH  032%=      5-min Rain = 0
KSB1 231913Z 28023G28KT 07/M09 A3015 RMK A01 T00681091  RH  031%=      5-min Rain = 0
KSB1 231914Z 27024G29KT 07/M09 A3015 RMK A01 T00671092  RH  031%=      5-min Rain = 0
KSB1 231915Z 27023KT 07/M09 A3015 RMK A01 T00681094  RH  030%=      5-min Rain = 0
KSB1 231916Z 27021G26KT 07/M09 A3015 RMK A01 T00681094  RH  030%=      5-min Rain = 0
KSB1 231917Z 27021G26KT 07/M09 A3015 RMK A01 T00681092  RH  031%=      5-min Rain = 0
KSB1 231918Z 26018G23KT 07/M09 A3016 RMK A01 T00681091  RH  031%=      5-min Rain = 0
KSB1 231919Z 26019KT 07/M09 A3015 RMK A01 T00681090  RH  031%=      5-min Rain = 0
KSB1 231920Z 26022G30KT 07/M09 A3015 RMK A01 T00691091  RH  031%=      5-min Rain = 0
KSB1 231921Z 27019G24KT 07/M09 A3016 RMK A01 T00691090  RH  031%=      5-min Rain = 0
KSB1 231922Z 28021KT 07/M09 A3016 RMK A01 T00701088  RH  031%=      5-min Rain = 0
KSB1 231923Z 28022KT 07/M08 A3016 RMK A01 T00681084  RH  033%=      5-min Rain = 0
KSB1 231924Z 28019G24KT 07/M08 A3016 RMK A01 T00681080  RH  034%=      5-min Rain = 0
KSB1 231925Z 28017G22KT 07/M08 A3016 RMK A01 T00661079  RH  035%=      5-min Rain = 0
KSB1 231926Z 26017KT 07/M08 A3015 RMK A01 T00691079  RH  034%=      5-min Rain = 0
KSB1 231927Z 25017G24KT 07/M08 A3015 RMK A01 T00711077  RH  034%=      5-min Rain = 0
KSB1 231928Z 25020KT 08/M08 A3015 RMK A01 T00751080  RH  032%=      5-min Rain = 0
KSB1 231929Z 27017KT 08/M08 A3015 RMK A01 T00761080  RH  032%=      5-min Rain = 0
KSB1 231930Z 28016KT 08/M08 A3015 RMK A01 T00761081  RH  032%=      5-min Rain = 0
KSB1 231931Z 27016G23KT 08/M08 A3015 RMK A01 T00761081  RH  032%=      5-min Rain = 0
KSB1 231932Z 27020KT 08/M08 A3015 RMK A01 T00771083  RH  031%=      5-min Rain = 0
KSB1 231933Z 27021G26KT 07/M09 A3015 RMK A01 T00741085  RH  031%=      5-min Rain = 0
KSB1 231934Z 27016G22KT 07/M09 A3015 RMK A01 T00711085  RH  032%=      5-min Rain = 0
KSB1 231935Z 25014KT 07/M08 A3015 RMK A01 T00711083  RH  033%=      5-min Rain = 0
KSB1 231936Z 27010G16KT 07/M08 A3016 RMK A01 T00721081  RH  033%=      5-min Rain = 0
KSB1 231937Z 28008KT 07/M08 A3016 RMK A01 T00741081  RH  033%=      5-min Rain = 0
KSB1 231938Z 27010G18KT 07/M08 A3016 RMK A01 T00731079  RH  033%=      5-min Rain = 0
KSB1 231939Z 27018G24KT 08/M08 A3016 RMK A01 T00751077  RH  033%=      5-min Rain = 0
KSB1 231940Z 26014G19KT 08/M08 A3016 RMK A01 T00751081  RH  032%=      5-min Rain = 0
KSB1 231941Z 28016G22KT 08/M08 A3016 RMK A01 T00781081  RH  031%=      5-min Rain = 0
KSB1 231942Z 27017G22KT 08/M09 A3016 RMK A01 T00781087  RH  030%=      5-min Rain = 0
KSB1 231943Z 27014KT 08/M09 A3016 RMK A01 T00771087  RH  030%=      5-min Rain = 0
KSB1 231944Z 26017KT 08/M09 A3016 RMK A01 T00761085  RH  031%=      5-min Rain = 0
KSB1 231945Z 26016KT 08/M09 A3016 RMK A01 T00761085  RH  031%=      5-min Rain = 0
KSB1 231946Z 25016KT 07/M09 A3016 RMK A01 T00731088  RH  031%=      5-min Rain = 0
KSB1 231947Z 27020KT 07/M09 A3016 RMK A01 T00731090  RH  031%=      5-min Rain = 0
KSB1 231948Z 26019KT 07/M09 A3016 RMK A01 T00741090  RH  030%=      5-min Rain = 0
KSB1 231949Z 27019G24KT 08/M09 A3016 RMK A01 T00751088  RH  031%=      5-min Rain = 0
KSB1 231950Z 27018KT 08/M09 A3016 RMK A01 T00751086  RH  031%=      5-min Rain = 0
KSB1 231951Z 27016KT 08/M09 A3016 RMK A01 T00761085  RH  031%=      5-min Rain = 0
KSB1 231952Z 26017KT 08/M08 A3016 RMK A01 T00781084  RH  031%=      5-min Rain = 0
KSB1 231953Z 27018G23KT 08/M09 A3016 RMK A01 T00771089  RH  030%=      5-min Rain = 0
KSB1 231954Z 28018KT 08/M09 A3016 RMK A01 T00781092  RH  029%=      5-min Rain = 0
KSB1 231955Z 27016G21KT 08/M09 A3016 RMK A01 T00791092  RH  029%=      5-min Rain = 0
KSB1 231956Z 29017KT 08/M09 A3016 RMK A01 T00791092  RH  029%=      5-min Rain = 0
KSB1 231957Z 28014KT 08/M09 A3016 RMK A01 T00761090  RH  030%=      5-min Rain = 0
KSB1 231958Z 27014G19KT 08/M09 A3016 RMK A01 T00771087  RH  030%=      5-min Rain = 0
KSB1 231959Z 27016G22KT 08/M09 A3016 RMK A01 T00791087  RH  030%=      5-min Rain = 0
KSB1 232000Z 25015G22KT 08/M09 A3015 RMK A01 T00781093  RH  029%=      5-min Rain = 0
KSB1 232001Z 26013G18KT 08/M09 A3015 RMK A01 T00761091  RH  029%=      5-min Rain = 0
KSB1 232002Z 26017KT 08/M09 A3015 RMK A01 T00781089  RH  030%=      5-min Rain = 0
KSB1 232003Z 25015G21KT 08/M09 A3015 RMK A01 T00761091  RH  029%=      5-min Rain = 0
KSB1 232004Z 26016KT 08/M09 A3015 RMK A01 T00761087  RH  030%=      5-min Rain = 0
KSB1 232005Z 26008KT 08/M09 A3015 RMK A01 T00751085  RH  031%=      5-min Rain = 0
KSB1 232006Z 26012G18KT 08/M08 A3015 RMK A01 T00781081  RH  031%=      5-min Rain = 0
KSB1 232007Z 27011G16KT 08/M08 A3015 RMK A01 T00811083  RH  030%=      5-min Rain = 0
KSB1 232008Z 27014G22KT 08/M09 A3015 RMK A01 T00801091  RH  029%=      5-min Rain = 0
KSB1 232009Z 27014G19KT 08/M09 A3015 RMK A01 T00791092  RH  029%=      5-min Rain = 0
KSB1 232010Z 28012G19KT 08/M09 A3015 RMK A01 T00801089  RH  029%=      5-min Rain = 0
KSB1 232011Z 27015KT 08/M09 A3015 RMK A01 T00821088  RH  029%=      5-min Rain = 0
KSB1 232012Z 27011KT 08/M09 A3015 RMK A01 T00841089  RH  029%=      5-min Rain = 0
KSB1 232013Z 28013G18KT 08/M09 A3015 RMK A01 T00821089  RH  029%=      5-min Rain = 0
KSB1 232014Z 27016KT 08/M09 A3015 RMK A01 T00811088  RH  029%=      5-min Rain = 0
KSB1 232015Z 28019G25KT 08/M08 A3015 RMK A01 T00831084  RH  030%=      5-min Rain = 0
KSB1 232016Z 28016KT 08/M09 A3015 RMK A01 T00831086  RH  029%=      5-min Rain = 0
KSB1 232017Z 28016KT 08/M08 A3015 RMK A01 T00821084  RH  030%=      5-min Rain = 0
KSB1 232018Z 26013KT 08/M08 A3015 RMK A01 T00841083  RH  030%=      5-min Rain = 0
KSB1 232019Z 28017KT 08/M08 A3015 RMK A01 T00841083  RH  030%=      5-min Rain = 0
KSB1 232020Z 28019KT 08/M08 A3015 RMK A01 T00841082  RH  030%=      5-min Rain = 0
KSB1 232021Z 28015KT 08/M08 A3015 RMK A01 T00821082  RH  030%=      5-min Rain = 0
KSB1 232022Z 27013KT 08/M08 A3015 RMK A01 T00811080  RH  031%=      5-min Rain = 0
KSB1 232023Z 26013KT 08/M08 A3015 RMK A01 T00821079  RH  031%=      5-min Rain = 0
KSB1 232024Z 25013KT 08/M08 A3014 RMK A01 T00841078  RH  031%=      5-min Rain = 0
KSB1 232025Z 25014G19KT 09/M08 A3014 RMK A01 T00851079  RH  030%=      5-min Rain = 0
KSB1 232026Z 26018KT 09/M08 A3014 RMK A01 T00851082  RH  030%=      5-min Rain = 0
KSB1 232027Z 28016KT 09/M08 A3014 RMK A01 T00881083  RH  029%=      5-min Rain = 0
KSB1 232028Z 28016G21KT 09/M09 A3014 RMK A01 T00921087  RH  027%=      5-min Rain = 0
KSB1 232029Z 28016G22KT 09/M09 A3014 RMK A01 T00941088  RH  027%=      5-min Rain = 0
KSB1 232030Z 29017G23KT 09/M09 A3014 RMK A01 T00921092  RH  026%=      5-min Rain = 0
KSB1 232031Z 29011KT 09/M09 A3015 RMK A01 T00881093  RH  027%=      5-min Rain = 0
KSB1 232032Z 28015KT 09/M09 A3014 RMK A01 T00871090  RH  028%=      5-min Rain = 0
KSB1 232033Z 27014G19KT 09/M09 A3015 RMK A01 T00851090  RH  028%=      5-min Rain = 0
KSB1 232034Z 27016KT 09/M09 A3014 RMK A01 T00851091  RH  028%=      5-min Rain = 0
KSB1 232035Z 28017KT 09/M09 A3014 RMK A01 T00851094  RH  027%=      5-min Rain = 0
KSB1 232036Z 26017KT 09/M09 A3014 RMK A01 T00861094  RH  027%=      5-min Rain = 0
KSB1 232037Z 26018KT 09/M09 A3014 RMK A01 T00871094  RH  027%=      5-min Rain = 0
KSB1 232038Z 26014KT 09/M09 A3014 RMK A01 T00871091  RH  028%=      5-min Rain = 0
KSB1 232039Z 29014G25KT 09/M09 A3014 RMK A01 T00881088  RH  028%=      5-min Rain = 0
KSB1 232040Z 28017G24KT 09/M09 A3015 RMK A01 T00871094  RH  027%=      5-min Rain = 0
KSB1 232041Z 28013KT 09/M09 A3015 RMK A01 T00861094  RH  027%=      5-min Rain = 0
KSB1 232042Z 28017G22KT 09/M09 A3014 RMK A01 T00891090  RH  027%=      5-min Rain = 0
KSB1 232043Z 28016KT 09/M09 A3014 RMK A01 T00901089  RH  027%=      5-min Rain = 0
KSB1 232044Z 26019KT 09/M09 A3014 RMK A01 T00871092  RH  027%=      5-min Rain = 0
KSB1 232045Z 27017KT 09/M10 A3014 RMK A01 T00881098  RH  026%=      5-min Rain = 0
KSB1 232046Z 27019KT 09/M10 A3014 RMK A01 T00901099  RH  025%=      5-min Rain = 0
KSB1 232047Z 27020KT 09/M10 A3014 RMK A01 T00911098  RH  025%=      5-min Rain = 0
KSB1 232048Z 26019G24KT 09/M10 A3014 RMK A01 T00901097  RH  026%=      5-min Rain = 0
KSB1 232049Z 27019KT 09/M09 A3014 RMK A01 T00881091  RH  027%=      5-min Rain = 0
KSB1 232050Z 26017KT 09/M09 A3014 RMK A01 T00871087  RH  028%=      5-min Rain = 0
KSB1 232051Z 28016KT 09/M08 A3014 RMK A01 T00891084  RH  028%=      5-min Rain = 0
KSB1 232052Z 28017G22KT 09/M09 A3014 RMK A01 T00891088  RH  028%=      5-min Rain = 0
KSB1 232053Z 28015KT 09/M09 A3014 RMK A01 T00891090  RH  027%=      5-min Rain = 0
KSB1 232054Z 28017G26KT 09/M09 A3014 RMK A01 T00901092  RH  027%=      5-min Rain = 0
KSB1 232055Z 28022KT 09/M10 A3014 RMK A01 T00901103  RH  024%=      5-min Rain = 0
KSB1 232056Z 27017KT 09/M11 A3014 RMK A01 T00891105  RH  024%=      5-min Rain = 0
KSB1 232057Z 27012KT 09/M11 A3014 RMK A01 T00871107  RH  024%=      5-min Rain = 0
KSB1 232058Z 27013G18KT 09/M10 A3014 RMK A01 T00881100  RH  025%=      5-min Rain = 0
KSB1 232059Z 27015KT 09/M10 A3014 RMK A01 T00921097  RH  025%=      5-min Rain = 0
KSB1 232100Z 26016G21KT 09/M10 A3014 RMK A01 T00921099  RH  025%=      5-min Rain = 0
KSB1 232101Z 27019G24KT 09/M10 A3013 RMK A01 T00901095  RH  026%=      5-min Rain = 0
KSB1 232102Z 28013KT 09/M09 A3014 RMK A01 T00901093  RH  026%=      5-min Rain = 0
KSB1 232103Z 28015KT 09/M09 A3013 RMK A01 T00901090  RH  027%=      5-min Rain = 0
KSB1 232104Z 26020KT 09/M09 A3013 RMK A01 T00941086  RH  027%=      5-min Rain = 0
KSB1 232105Z 26019KT 09/M09 A3013 RMK A01 T00941088  RH  027%=      5-min Rain = 0
KSB1 232106Z 26019KT 09/M09 A3012 RMK A01 T00911089  RH  027%=      5-min Rain = 0
KSB1 232107Z 25016KT 09/M09 A3012 RMK A01 T00901089  RH  027%=      5-min Rain = 0
KSB1 232108Z 26018KT 09/M09 A3012 RMK A01 T00931088  RH  027%=      5-min Rain = 0
KSB1 232109Z 27016KT 10/M09 A3013 RMK A01 T00951089  RH  026%=      5-min Rain = 0
KSB1 232110Z 28019G25KT 10/M09 A3013 RMK A01 T00951090  RH  026%=      5-min Rain = 0
KSB1 232111Z 29020KT 10/M10 A3013 RMK A01 T00961095  RH  025%=      5-min Rain = 0
KSB1 232112Z 27015KT 10/M10 A3013 RMK A01 T00961095  RH  025%=      5-min Rain = 0
KSB1 232113Z 27015G22KT 10/M10 A3013 RMK A01 T00961096  RH  025%=      5-min Rain = 0
KSB1 232114Z 26018KT 10/M10 A3013 RMK A01 T00981095  RH  025%=      5-min Rain = 0
KSB1 232115Z 27015KT 10/M10 A3013 RMK A01 T00971096  RH  024%=      5-min Rain = 0
KSB1 232116Z 27015KT 10/M10 A3013 RMK A01 T00951096  RH  025%=      5-min Rain = 0
KSB1 232117Z 26017G22KT 09/M10 A3013 RMK A01 T00941098  RH  025%=      5-min Rain = 0
KSB1 232118Z 27015G21KT 09/M10 A3013 RMK A01 T00931103  RH  024%=      5-min Rain = 0
KSB1 232119Z 27018KT 10/M10 A3013 RMK A01 T00961097  RH  025%=      5-min Rain = 0
KSB1 232120Z 27017KT 10/M10 A3013 RMK A01 T00971096  RH  025%=      5-min Rain = 0
KSB1 232121Z 28016G22KT 10/M09 A3013 RMK A01 T00981092  RH  025%=      5-min Rain = 0
KSB1 232122Z 28017KT 10/M09 A3013 RMK A01 T00971089  RH  026%=      5-min Rain = 0
KSB1 232123Z 28016KT 10/M09 A3014 RMK A01 T00951088  RH  027%=      5-min Rain = 0
KSB1 232124Z 28011KT 09/M09 A3014 RMK A01 T00941087  RH  027%=      5-min Rain = 0
KSB1 232125Z 29014KT 09/M09 A3014 RMK A01 T00941086  RH  027%=      5-min Rain = 0
KSB1 232126Z 28013KT 09/M09 A3014 RMK A01 T00931086  RH  027%=      5-min Rain = 0
KSB1 232127Z 28017G23KT 09/M09 A3014 RMK A01 T00941085  RH  027%=      5-min Rain = 0
KSB1 232128Z 27018KT 10/M09 A3013 RMK A01 T00961089  RH  026%=      5-min Rain = 0
KSB1 232129Z 27017KT 10/M10 A3013 RMK A01 T00961096  RH  025%=      5-min Rain = 0
KSB1 232130Z 29017KT 10/M10 A3013 RMK A01 T00971100  RH  024%=      5-min Rain = 0
KSB1 232131Z 29015KT 10/M10 A3013 RMK A01 T00981104  RH  023%=      5-min Rain = 0
KSB1 232132Z 27015KT 10/M10 A3013 RMK A01 T00961101  RH  024%=      5-min Rain = 0
KSB1 232133Z 27018KT 10/M10 A3013 RMK A01 T00961100  RH  024%=      5-min Rain = 0
KSB1 232134Z 26018KT 09/M11 A3013 RMK A01 T00941109  RH  023%=      5-min Rain = 0
KSB1 232135Z 27016KT 09/M11 A3013 RMK A01 T00931105  RH  023%=      5-min Rain = 0
KSB1 232136Z 28014KT 10/M10 A3013 RMK A01 T00971101  RH  024%=      5-min Rain = 0
KSB1 232137Z 29014G21KT 10/M10 A3013 RMK A01 T01021099  RH  023%=      5-min Rain = 0
KSB1 232138Z 30018KT 10/M10 A3013 RMK A01 T01021101  RH  023%=      5-min Rain = 0
KSB1 232139Z 30017KT 10/M10 A3013 RMK A01 T00961103  RH  023%=      5-min Rain = 0
KSB1 232140Z 29017KT 09/M10 A3013 RMK A01 T00941102  RH  024%=      5-min Rain = 0
KSB1 232141Z 30018G23KT 10/M10 A3013 RMK A01 T00951099  RH  024%=      5-min Rain = 0
KSB1 232142Z 30017G22KT 10/M10 A3013 RMK A01 T00971099  RH  024%=      5-min Rain = 0
KSB1 232143Z 30014G19KT 10/M10 A3013 RMK A01 T00971098  RH  024%=      5-min Rain = 0
KSB1 232144Z 30018KT 10/M10 A3013 RMK A01 T01001096  RH  024%=      5-min Rain = 0
KSB1 232145Z 30019KT 10/M10 A3013 RMK A01 T00991097  RH  024%=      5-min Rain = 0
KSB1 232146Z 30015KT 10/M10 A3013 RMK A01 T00961098  RH  024%=      5-min Rain = 0
KSB1 232147Z 30018KT 10/M10 A3013 RMK A01 T00961095  RH  025%=      5-min Rain = 0
KSB1 232148Z 30018G23KT 10/M09 A3013 RMK A01 T00971093  RH  025%=      5-min Rain = 0
KSB1 232149Z 30018KT 10/M10 A3013 RMK A01 T01001097  RH  024%=      5-min Rain = 0
KSB1 232150Z 29014KT 10/M10 A3013 RMK A01 T00981100  RH  024%=      5-min Rain = 0
KSB1 232151Z 27014KT 10/M10 A3013 RMK A01 T00981099  RH  024%=      5-min Rain = 0
KSB1 232152Z 29016KT 10/M10 A3013 RMK A01 T01001097  RH  024%=      5-min Rain = 0
KSB1 232153Z 29016KT 10/M10 A3013 RMK A01 T01041099  RH  023%=      5-min Rain = 0
KSB1 232154Z 29017G22KT 10/M10 A3013 RMK A01 T01041103  RH  022%=      5-min Rain = 0
KSB1 232155Z 30021KT 10/M10 A3013 RMK A01 T01031103  RH  022%=      5-min Rain = 0
KSB1 232156Z 29020KT 10/M10 A3013 RMK A01 T01031103  RH  022%=      5-min Rain = 0
KSB1 232157Z 28017KT 10/M10 A3013 RMK A01 T00991102  RH  023%=      5-min Rain = 0
KSB1 232158Z 29014KT 10/M10 A3013 RMK A01 T01001098  RH  024%=      5-min Rain = 0
KSB1 232159Z 30018KT 10/M10 A3013 RMK A01 T01001096  RH  024%=      5-min Rain = 0
KSB1 232200Z 29016G21KT 10/M09 A3013 RMK A01 T00971094  RH  025%=      5-min Rain = 0
KSB1 232201Z 28019KT 10/M09 A3013 RMK A01 T00991093  RH  025%=      5-min Rain = 0
KSB1 232202Z 27015G21KT 10/M10 A3013 RMK A01 T01001096  RH  024%=      5-min Rain = 0
KSB1 232203Z 30015KT 10/M10 A3013 RMK A01 T01021096  RH  024%=      5-min Rain = 0
KSB1 232204Z 28019KT 10/M10 A3013 RMK A01 T00991098  RH  024%=      5-min Rain = 0
KSB1 232205Z 29016KT 10/M10 A3013 RMK A01 T00971099  RH  024%=      5-min Rain = 0
KSB1 232206Z 27014KT 10/M10 A3013 RMK A01 T00951097  RH  025%=      5-min Rain = 0
KSB1 232207Z 27013KT 10/M10 A3013 RMK A01 T00971095  RH  025%=      5-min Rain = 0
KSB1 232208Z 29013G19KT 10/M10 A3013 RMK A01 T01011096  RH  024%=      5-min Rain = 0
KSB1 232209Z 30014KT 11/M10 A3013 RMK A01 T01051103  RH  022%=      5-min Rain = 0
KSB1 232210Z 30016KT 11/M11 A3013 RMK A01 T01051108  RH  021%=      5-min Rain = 0
KSB1 232211Z 29019G24KT 10/M11 A3013 RMK A01 T01041106  RH  022%=      5-min Rain = 0
KSB1 232212Z 29017KT 10/M11 A3013 RMK A01 T01011105  RH  022%=      5-min Rain = 0
KSB1 232213Z 30019KT 10/M11 A3013 RMK A01 T01001106  RH  022%=      5-min Rain = 0
KSB1 232214Z 30019G24KT 10/M11 A3013 RMK A01 T01021106  RH  022%=      5-min Rain = 0
KSB1 232215Z 30020KT 10/M11 A3013 RMK A01 T01021107  RH  022%=      5-min Rain = 0
KSB1 232216Z 30017KT 10/M11 A3013 RMK A01 T01021106  RH  022%=      5-min Rain = 0
KSB1 232217Z 29020G25KT 10/M11 A3013 RMK A01 T01011105  RH  022%=      5-min Rain = 0
KSB1 232218Z 30020G26KT 10/M11 A3013 RMK A01 T01001105  RH  022%=      5-min Rain = 0
KSB1 232219Z 29019KT 10/M11 A3013 RMK A01 T00991105  RH  023%=      5-min Rain = 0
KSB1 232220Z 28016G22KT 10/M11 A3013 RMK A01 T00971105  RH  023%=      5-min Rain = 0
KSB1 232221Z 28017KT 10/M10 A3013 RMK A01 T00991102  RH  023%=      5-min Rain = 0
KSB1 232222Z 28015G20KT 10/M10 A3013 RMK A01 T01031101  RH  023%=      5-min Rain = 0
KSB1 232223Z 28017G23KT 10/M10 A3013 RMK A01 T01041103  RH  022%=      5-min Rain = 0
KSB1 232224Z 28017G22KT 10/M11 A3013 RMK A01 T01031105  RH  022%=      5-min Rain = 0
KSB1 232225Z 28015G20KT 10/M11 A3013 RMK A01 T01021105  RH  022%=      5-min Rain = 0
KSB1 232226Z 28013KT 10/M10 A3014 RMK A01 T01021103  RH  022%=      5-min Rain = 0
KSB1 232227Z 27014KT 10/M10 A3014 RMK A01 T01031101  RH  023%=      5-min Rain = 0
KSB1 232228Z 28014KT 10/M10 A3014 RMK A01 T01041102  RH  022%=      5-min Rain = 0
KSB1 232229Z 27013KT 10/M10 A3014 RMK A01 T01031102  RH  023%=      5-min Rain = 0
KSB1 232230Z 28014KT 10/M10 A3014 RMK A01 T01041103  RH  022%=      5-min Rain = 0
KSB1 232231Z 29012KT 10/M10 A3014 RMK A01 T01031104  RH  022%=      5-min Rain = 0
KSB1 232232Z 28010KT 10/M10 A3015 RMK A01 T01021103  RH  022%=      5-min Rain = 0
KSB1 232233Z 30012G18KT 10/M10 A3015 RMK A01 T01031103  RH  022%=      5-min Rain = 0
KSB1 232234Z 30014KT 10/M11 A3015 RMK A01 T01041105  RH  022%=      5-min Rain = 0
KSB1 232235Z 30010KT 10/M11 A3015 RMK A01 T01031108  RH  022%=      5-min Rain = 0
KSB1 232236Z 31013KT 10/M11 A3014 RMK A01 T01021107  RH  022%=      5-min Rain = 0
KSB1 232237Z 31013G18KT 10/M11 A3014 RMK A01 T01011106  RH  022%=      5-min Rain = 0
KSB1 232238Z 28012KT 10/M11 A3014 RMK A01 T01011105  RH  022%=      5-min Rain = 0
KSB1 232239Z 29012KT 10/M10 A3014 RMK A01 T01011104  RH  023%=      5-min Rain = 0
KSB1 232240Z 29012KT 10/M10 A3014 RMK A01 T01031104  RH  022%=      5-min Rain = 0
KSB1 232241Z 29015KT 10/M10 A3014 RMK A01 T01041104  RH  022%=      5-min Rain = 0
KSB1 232242Z 27016G21KT 10/M11 A3014 RMK A01 T01031105  RH  022%=      5-min Rain = 0
KSB1 232243Z 27015KT 10/M11 A3014 RMK A01 T01031107  RH  022%=      5-min Rain = 0
KSB1 232244Z 27018KT 10/M11 A3014 RMK A01 T01021107  RH  022%=      5-min Rain = 0
KSB1 232245Z 27016G21KT 10/M11 A3013 RMK A01 T01011107  RH  022%=      5-min Rain = 0
KSB1 232246Z 28015KT 10/M11 A3014 RMK A01 T01001105  RH  023%=      5-min Rain = 0
KSB1 232247Z 27013KT 10/M10 A3014 RMK A01 T01001103  RH  023%=      5-min Rain = 0
KSB1 232248Z 28012KT 10/M10 A3013 RMK A01 T01021100  RH  023%=      5-min Rain = 0
KSB1 232249Z 27012G17KT 10/M10 A3014 RMK A01 T01041100  RH  023%=      5-min Rain = 0
KSB1 232250Z 28014KT 11/M10 A3014 RMK A01 T01051100  RH  022%=      5-min Rain = 0
KSB1 232251Z 28011G17KT 10/M10 A3014 RMK A01 T01041103  RH  022%=      5-min Rain = 0
KSB1 232252Z 29014KT 11/M10 A3014 RMK A01 T01051100  RH  022%=      5-min Rain = 0
KSB1 232253Z 28017G24KT 11/M10 A3014 RMK A01 T01061103  RH  022%=      5-min Rain = 0
KSB1 232254Z 27015KT 10/M11 A3014 RMK A01 T01021107  RH  022%=      5-min Rain = 0
KSB1 232255Z 28015KT 10/M11 A3014 RMK A01 T01021106  RH  022%=      5-min Rain = 0
KSB1 232256Z 28011KT 10/M11 A3014 RMK A01 T01001106  RH  022%=      5-min Rain = 0
KSB1 232257Z 30010KT 10/M10 A3014 RMK A01 T01021104  RH  022%=      5-min Rain = 0
KSB1 232258Z 29010G17KT 10/M11 A3014 RMK A01 T01031105  RH  022%=      5-min Rain = 0
KSB1 232259Z 27012KT 10/M11 A3014 RMK A01 T01041106  RH  022%=      5-min Rain = 0
KSB1 232300Z 27015KT 10/M11 A3014 RMK A01 T01041106  RH  022%=      5-min Rain = 0
KSB1 232301Z 27015KT 10/M11 A3015 RMK A01 T01031107  RH  022%=      5-min Rain = 0
KSB1 232302Z 27014KT 10/M11 A3015 RMK A01 T01011107  RH  022%=      5-min Rain = 0
KSB1 232303Z 27012KT 10/M11 A3015 RMK A01 T01001106  RH  022%=      5-min Rain = 0
KSB1 232304Z 27013KT 10/M11 A3015 RMK A01 T01001105  RH  022%=      5-min Rain = 0
KSB1 232305Z 27014KT 10/M10 A3015 RMK A01 T01011104  RH  023%=      5-min Rain = 0
KSB1 232306Z 27012KT 10/M11 A3015 RMK A01 T00991106  RH  022%=      5-min Rain = 0
KSB1 232307Z 26009KT 10/M11 A3015 RMK A01 T00981106  RH  023%=      5-min Rain = 0
KSB1 232308Z 28008KT 10/M10 A3015 RMK A01 T00981104  RH  023%=      5-min Rain = 0
KSB1 232309Z 29007KT 10/M10 A3015 RMK A01 T00991103  RH  023%=      5-min Rain = 0
KSB1 232310Z 29008KT 10/M10 A3015 RMK A01 T01001102  RH  023%=      5-min Rain = 0
KSB1 232311Z 27011KT 10/M10 A3015 RMK A01 T01011102  RH  023%=      5-min Rain = 0
KSB1 232312Z 29006KT 10/M10 A3016 RMK A01 T01001104  RH  023%=      5-min Rain = 0
KSB1 232313Z 27006KT 10/M10 A3016 RMK A01 T00981104  RH  023%=      5-min Rain = 0
KSB1 232314Z 28010KT 10/M10 A3016 RMK A01 T00981104  RH  023%=      5-min Rain = 0
KSB1 232315Z 27008KT 10/M11 A3016 RMK A01 T00991107  RH  022%=      5-min Rain = 0
KSB1 232316Z 27011KT 10/M11 A3015 RMK A01 T00991106  RH  022%=      5-min Rain = 0
KSB1 232317Z 28012KT 10/M11 A3016 RMK A01 T00991107  RH  022%=      5-min Rain = 0
KSB1 232318Z 27011KT 10/M11 A3016 RMK A01 T00991108  RH  022%=      5-min Rain = 0
KSB1 232319Z 27009KT 10/M11 A3016 RMK A01 T00991107  RH  022%=      5-min Rain = 0
KSB1 232320Z 27008KT 10/M11 A3016 RMK A01 T00991108  RH  022%=      5-min Rain = 0
KSB1 232321Z 27008KT 10/M11 A3016 RMK A01 T00991107  RH  022%=      5-min Rain = 0
KSB1 232322Z 28011KT 10/M11 A3016 RMK A01 T01011107  RH  022%=      5-min Rain = 0
KSB1 232323Z 28011G17KT 10/M11 A3016 RMK A01 T01011108  RH  022%=      5-min Rain = 0
KSB1 232324Z 30010G17KT 10/M11 A3016 RMK A01 T00991107  RH  022%=      5-min Rain = 0
KSB1 232325Z 30013KT 10/M11 A3016 RMK A01 T00981108  RH  022%=      5-min Rain = 0
KSB1 232326Z 29009KT 10/M11 A3016 RMK A01 T00971106  RH  023%=      5-min Rain = 0
KSB1 232327Z 28009KT 10/M11 A3016 RMK A01 T00981106  RH  023%=      5-min Rain = 0
KSB1 232328Z 31007G12KT 10/M11 A3016 RMK A01 T00981106  RH  023%=      5-min Rain = 0
KSB1 232329Z 30005KT 10/M11 A3016 RMK A01 T00981106  RH  023%=      5-min Rain = 0
KSB1 232330Z 28011KT 10/M11 A3016 RMK A01 T00981105  RH  023%=      5-min Rain = 0
KSB1 232331Z 27012KT 10/M11 A3016 RMK A01 T00991106  RH  022%=      5-min Rain = 0
KSB1 232332Z 27012KT 10/M11 A3016 RMK A01 T00991106  RH  022%=      5-min Rain = 0
KSB1 232333Z 27009KT 10/M11 A3016 RMK A01 T00981106  RH  023%=      5-min Rain = 0
KSB1 232334Z 27007KT 10/M10 A3016 RMK A01 T00991104  RH  023%=      5-min Rain = 0
KSB1 232335Z 30006KT 10/M10 A3016 RMK A01 T01011104  RH  023%=      5-min Rain = 0
KSB1 232336Z 28006G13KT 10/M11 A3016 RMK A01 T01021106  RH  022%=      5-min Rain = 0
KSB1 232337Z 28010KT 10/M11 A3016 RMK A01 T01021107  RH  022%=      5-min Rain = 0
KSB1 232338Z 28013KT 10/M11 A3016 RMK A01 T01011109  RH  022%=      5-min Rain = 0
KSB1 232339Z 28011KT 10/M11 A3016 RMK A01 T01001110  RH  022%=      5-min Rain = 0
KSB1 232340Z 28009KT 10/M11 A3016 RMK A01 T00991108  RH  022%=      5-min Rain = 0
KSB1 232341Z 28008KT 10/M11 A3016 RMK A01 T01001108  RH  022%=      5-min Rain = 0
KSB1 232342Z 28006G13KT 10/M11 A3017 RMK A01 T01001106  RH  022%=      5-min Rain = 0
KSB1 232343Z 28008KT 10/M11 A3017 RMK A01 T01011106  RH  022%=      5-min Rain = 0
KSB1 232344Z 27008G15KT 10/M11 A3017 RMK A01 T01001106  RH  022%=      5-min Rain = 0
KSB1 232345Z 28010KT 10/M11 A3017 RMK A01 T01001105  RH  022%=      5-min Rain = 0
KSB1 232346Z 26006KT 10/M11 A3017 RMK A01 T00991105  RH  023%=      5-min Rain = 0
KSB1 232347Z 26005KT 10/M10 A3017 RMK A01 T00991104  RH  023%=      5-min Rain = 0
KSB1 232348Z 26006G11KT 10/M10 A3017 RMK A01 T01001104  RH  023%=      5-min Rain = 0
KSB1 232349Z 24003KT 10/M10 A3017 RMK A01 T01001103  RH  023%=      5-min Rain = 0
KSB1 232350Z 35003KT 10/M10 A3017 RMK A01 T01001104  RH  023%=      5-min Rain = 0
KSB1 232351Z 30003KT 10/M11 A3017 RMK A01 T00991105  RH  023%=      5-min Rain = 0
KSB1 232352Z 30002KT 10/M11 A3018 RMK A01 T00981105  RH  023%=      5-min Rain = 0
KSB1 232353Z 29002KT 10/M10 A3018 RMK A01 T00981104  RH  023%=      5-min Rain = 0
KSB1 232354Z 20003KT 10/M11 A3018 RMK A01 T00981105  RH  023%=      5-min Rain = 0
KSB1 232355Z 21005KT 10/M11 A3018 RMK A01 T00981105  RH  023%=      5-min Rain = 0
KSB1 232356Z 29005KT 10/M11 A3018 RMK A01 T00981105  RH  023%=      5-min Rain = 0
KSB1 232357Z 29008KT 10/M11 A3018 RMK A01 T00981106  RH  023%=      5-min Rain = 0
KSB1 232358Z 27006KT 10/M11 A3018 RMK A01 T00981106  RH  023%=      5-min Rain = 0
KSB1 232359Z 27004KT 10/M11 A3018 RMK A01 T00961106  RH  023%=      5-min Rain = 0
KSB1 240000Z 25007KT 10/M11 A3018 RMK A01 T00961106  RH  023%=      5-min Rain = 0
KSB1 240001Z 24005KT 10/M11 A3018 RMK A01 T00961106  RH  023%=      5-min Rain = 0
KSB1 240002Z 25005KT 10/M11 A3017 RMK A01 T00961105  RH  023%=      5-min Rain = 0
KSB1 240003Z 01005KT 10/M10 A3018 RMK A01 T00981104  RH  023%=      5-min Rain = 0
KSB1 240004Z 27002KT 10/M11 A3018 RMK A01 T00961106  RH  023%=      5-min Rain = 0
KSB1 240005Z 28004KT 10/M11 A3018 RMK A01 T00961105  RH  023%=      5-min Rain = 0
KSB1 240006Z 33004KT 10/M10 A3018 RMK A01 T00961104  RH  023%=      5-min Rain = 0
KSB1 240007Z 31007KT 10/M10 A3018 RMK A01 T00961104  RH  023%=      5-min Rain = 0
KSB1 240008Z 33008KT 10/M10 A3018 RMK A01 T00951104  RH  023%=      5-min Rain = 0
KSB1 240009Z 30005KT 09/M11 A3018 RMK A01 T00941105  RH  024%=      5-min Rain = 0
KSB1 240010Z 30006KT 09/M10 A3018 RMK A01 T00931104  RH  024%=      5-min Rain = 0
KSB1 240011Z 33006KT 09/M10 A3018 RMK A01 T00931103  RH  024%=      5-min Rain = 0
KSB1 240012Z 33006KT 09/M10 A3018 RMK A01 T00931104  RH  024%=      5-min Rain = 0
KSB1 240013Z 32005KT 09/M10 A3018 RMK A01 T00921104  RH  024%=      5-min Rain = 0
KSB1 240014Z 28008KT 09/M10 A3018 RMK A01 T00921103  RH  024%=      5-min Rain = 0
KSB1 240015Z 30010KT 09/M10 A3018 RMK A01 T00931102  RH  024%=      5-min Rain = 0
KSB1 240016Z 29008KT 09/M10 A3018 RMK A01 T00931103  RH  024%=      5-min Rain = 0
KSB1 240017Z 27007KT 09/M10 A3018 RMK A01 T00931103  RH  024%=      5-min Rain = 0
KSB1 240018Z 28008KT 09/M10 A3018 RMK A01 T00931102  RH  024%=      5-min Rain = 0
KSB1 240019Z 29010KT 09/M10 A3018 RMK A01 T00931103  RH  024%=      5-min Rain = 0
KSB1 240020Z 28008KT 09/M10 A3018 RMK A01 T00921103  RH  024%=      5-min Rain = 0
KSB1 240021Z 28006KT 09/M10 A3018 RMK A01 T00921103  RH  024%=      5-min Rain = 0
KSB1 240022Z 28012KT 09/M10 A3018 RMK A01 T00921101  RH  024%=      5-min Rain = 0
KSB1 240023Z 31009KT 09/M10 A3018 RMK A01 T00921100  RH  024%=      5-min Rain = 0
KSB1 240024Z 31007KT 09/M10 A3018 RMK A01 T00921101  RH  024%=      5-min Rain = 0
KSB1 240025Z 31005KT 09/M10 A3019 RMK A01 T00911101  RH  025%=      5-min Rain = 0
KSB1 240026Z 31005KT 09/M10 A3019 RMK A01 T00901101  RH  025%=      5-min Rain = 0
KSB1 240027Z 31005KT 09/M10 A3019 RMK A01 T00901100  RH  025%=      5-min Rain = 0
KSB1 240028Z 32008KT 09/M10 A3019 RMK A01 T00901100  RH  025%=      5-min Rain = 0
KSB1 240029Z 32010KT 09/M10 A3019 RMK A01 T00891101  RH  025%=      5-min Rain = 0
KSB1 240030Z 32008KT 09/M10 A3019 RMK A01 T00871103  RH  025%=      5-min Rain = 0
KSB1 240031Z 32007KT 09/M10 A3019 RMK A01 T00861102  RH  025%=      5-min Rain = 0
KSB1 240032Z 31007KT 09/M10 A3019 RMK A01 T00861101  RH  025%=      5-min Rain = 0
KSB1 240033Z 29008KT 09/M10 A3019 RMK A01 T00871102  RH  025%=      5-min Rain = 0
KSB1 240034Z 29011KT 09/M10 A3019 RMK A01 T00871102  RH  025%=      5-min Rain = 0
KSB1 240035Z 30007KT 09/M10 A3019 RMK A01 T00881102  RH  025%=      5-min Rain = 0
KSB1 240036Z 30006KT 09/M10 A3019 RMK A01 T00881102  RH  025%=      5-min Rain = 0
KSB1 240037Z 31006KT 09/M10 A3019 RMK A01 T00871101  RH  025%=      5-min Rain = 0
KSB1 240038Z 32006KT 09/M10 A3019 RMK A01 T00871102  RH  025%=      5-min Rain = 0
KSB1 240039Z 32007KT 09/M10 A3019 RMK A01 T00861101  RH  025%=      5-min Rain = 0
KSB1 240040Z 33008KT 09/M10 A3019 RMK A01 T00851102  RH  025%=      5-min Rain = 0
KSB1 240041Z 32008KT 08/M10 A3019 RMK A01 T00841102  RH  026%=      5-min Rain = 0
KSB1 240042Z 31008KT 08/M10 A3019 RMK A01 T00831102  RH  026%=      5-min Rain = 0
KSB1 240043Z 31006KT 08/M10 A3019 RMK A01 T00821102  RH  026%=      5-min Rain = 0
KSB1 240044Z 32008KT 08/M10 A3019 RMK A01 T00821101  RH  026%=      5-min Rain = 0
KSB1 240045Z 32008KT 08/M10 A3019 RMK A01 T00811102  RH  026%=      5-min Rain = 0
KSB1 240046Z 33006KT 08/M10 A3019 RMK A01 T00811102  RH  026%=      5-min Rain = 0
KSB1 240047Z 30006KT 08/M10 A3019 RMK A01 T00811102  RH  026%=      5-min Rain = 0
KSB1 240048Z 30007KT 08/M10 A3019 RMK A01 T00811102  RH  026%=      5-min Rain = 0
KSB1 240049Z 31007KT 08/M10 A3019 RMK A01 T00801102  RH  026%=      5-min Rain = 0
KSB1 240050Z 31007KT 08/M10 A3019 RMK A01 T00811101  RH  027%=      5-min Rain = 0
KSB1 240051Z 31009KT 08/M10 A3019 RMK A01 T00801101  RH  027%=      5-min Rain = 0
KSB1 240052Z 31010KT 08/M10 A3019 RMK A01 T00791101  RH  027%=      5-min Rain = 0
KSB1 240053Z 31011KT 08/M10 A3019 RMK A01 T00791102  RH  027%=      5-min Rain = 0
KSB1 240054Z 31011KT 08/M10 A3019 RMK A01 T00791101  RH  027%=      5-min Rain = 0
KSB1 240055Z 31011KT 08/M10 A3019 RMK A01 T00791102  RH  027%=      5-min Rain = 0
KSB1 240056Z 31012KT 08/M10 A3019 RMK A01 T00781102  RH  027%=      5-min Rain = 0
KSB1 240057Z 30013KT 08/M10 A3018 RMK A01 T00781102  RH  027%=      5-min Rain = 0
KSB1 240058Z 31012KT 08/M10 A3018 RMK A01 T00781103  RH  026%=      5-min Rain = 0
KSB1 240059Z 31014KT 08/M10 A3018 RMK A01 T00781103  RH  026%=      5-min Rain = 0
KSB1 240100Z 30013KT 08/M10 A3018 RMK A01 T00781103  RH  026%=      5-min Rain = 0
KSB1 240101Z 30013KT 08/M10 A3018 RMK A01 T00771104  RH  026%=      5-min Rain = 0
KSB1 240102Z 30012KT 08/M10 A3018 RMK A01 T00761104  RH  027%=      5-min Rain = 0
KSB1 240103Z 30012KT 08/M10 A3018 RMK A01 T00761104  RH  027%=      5-min Rain = 0
KSB1 240104Z 30011KT 08/M10 A3018 RMK A01 T00751103  RH  027%=      5-min Rain = 0
KSB1 240105Z 29011KT 07/M10 A3018 RMK A01 T00741104  RH  027%=      5-min Rain = 0
KSB1 240106Z 29013KT 07/M10 A3019 RMK A01 T00741104  RH  027%=      5-min Rain = 0
KSB1 240107Z 29014KT 07/M11 A3019 RMK A01 T00741105  RH  027%=      5-min Rain = 0
KSB1 240108Z 29014KT 07/M11 A3019 RMK A01 T00741105  RH  027%=      5-min Rain = 0
KSB1 240109Z 29012KT 08/M11 A3019 RMK A01 T00751105  RH  027%=      5-min Rain = 0
KSB1 240110Z 29013G18KT 08/M11 A3019 RMK A01 T00751105  RH  027%=      5-min Rain = 0
KSB1 240111Z 29013KT 08/M11 A3019 RMK A01 T00751105  RH  027%=      5-min Rain = 0
KSB1 240112Z 29013KT 08/M10 A3019 RMK A01 T00751104  RH  027%=      5-min Rain = 0
KSB1 240113Z 29012KT 08/M10 A3019 RMK A01 T00751104  RH  027%=      5-min Rain = 0
KSB1 240114Z 29014KT 08/M10 A3019 RMK A01 T00751103  RH  027%=      5-min Rain = 0
KSB1 240115Z 29012KT 08/M10 A3019 RMK A01 T00751103  RH  027%=      5-min Rain = 0
KSB1 240116Z 30012KT 08/M10 A3019 RMK A01 T00751103  RH  027%=      5-min Rain = 0
KSB1 240117Z 30013KT 08/M10 A3019 RMK A01 T00751102  RH  027%=      5-min Rain = 0
KSB1 240118Z 29013KT 07/M10 A3019 RMK A01 T00741102  RH  027%=      5-min Rain = 0
KSB1 240119Z 29012KT 08/M10 A3019 RMK A01 T00751102  RH  027%=      5-min Rain = 0
KSB1 240120Z 29012KT 07/M10 A3019 RMK A01 T00741101  RH  027%=      5-min Rain = 0
KSB1 240121Z 29012KT 07/M10 A3019 RMK A01 T00741102  RH  028%=      5-min Rain = 0
KSB1 240122Z 29013KT 07/M10 A3019 RMK A01 T00741102  RH  028%=      5-min Rain = 0
KSB1 240123Z 29012KT 07/M10 A3019 RMK A01 T00731102  RH  028%=      5-min Rain = 0
KSB1 240124Z 30012KT 07/M10 A3019 RMK A01 T00731102  RH  028%=      5-min Rain = 0
KSB1 240125Z 29010KT 07/M10 A302 RMK A01 T00731102  RH  028%=      5-min Rain = 0
KSB1 240126Z 30010KT 07/M10 A302 RMK A01 T00731102  RH  028%=      5-min Rain = 0
KSB1 240127Z 29008KT 07/M10 A302 RMK A01 T00731101  RH  028%=      5-min Rain = 0
KSB1 240128Z 29006KT 07/M10 A302 RMK A01 T00721101  RH  028%=      5-min Rain = 0
KSB1 240129Z 28005KT 07/M10 A302 RMK A01 T00711101  RH  028%=      5-min Rain = 0
KSB1 240130Z 27005KT 07/M10 A302 RMK A01 T00691101  RH  028%=      5-min Rain = 0
KSB1 240131Z 28005KT 07/M10 A302 RMK A01 T00681101  RH  029%=      5-min Rain = 0
KSB1 240132Z 27003KT 07/M10 A3021 RMK A01 T00671101  RH  029%=      5-min Rain = 0
KSB1 240133Z 27001KT 07/M10 A3021 RMK A01 T00661100  RH  029%=      5-min Rain = 0
KSB1 240134Z 26002KT 07/M10 A3021 RMK A01 T00651101  RH  029%=      5-min Rain = 0
KSB1 240135Z 27002KT 06/M10 A3021 RMK A01 T00641101  RH  030%=      5-min Rain = 0
KSB1 240136Z 28003KT 06/M10 A3021 RMK A01 T00641101  RH  030%=      5-min Rain = 0
KSB1 240137Z 33004KT 06/M10 A3021 RMK A01 T00641100  RH  030%=      5-min Rain = 0
KSB1 240138Z 31004KT 06/M10 A3021 RMK A01 T00641099  RH  030%=      5-min Rain = 0
KSB1 240139Z 31005KT 07/M10 A3021 RMK A01 T00651098  RH  030%=      5-min Rain = 0
KSB1 240140Z 29004KT 07/M10 A3021 RMK A01 T00651098  RH  030%=      5-min Rain = 0
KSB1 240141Z 31005KT 07/M10 A3021 RMK A01 T00651098  RH  030%=      5-min Rain = 0
KSB1 240142Z 31005KT 07/M10 A3021 RMK A01 T00651096  RH  030%=      5-min Rain = 0
KSB1 240143Z 30006KT 07/M10 A3021 RMK A01 T00661095  RH  030%=      5-min Rain = 0
KSB1 240144Z 29006KT 07/M10 A3021 RMK A01 T00661096  RH  030%=      5-min Rain = 0
KSB1 240145Z 30006KT 07/M10 A3022 RMK A01 T00671095  RH  030%=      5-min Rain = 0
KSB1 240146Z 31007KT 07/M10 A3022 RMK A01 T00671095  RH  030%=      5-min Rain = 0
KSB1 240147Z 30005KT 07/M10 A3022 RMK A01 T00671095  RH  031%=      5-min Rain = 0
KSB1 240148Z 29005KT 07/M09 A3022 RMK A01 T00671094  RH  031%=      5-min Rain = 0
KSB1 240149Z 30006KT 07/M09 A3022 RMK A01 T00661094  RH  031%=      5-min Rain = 0
KSB1 240150Z 31006KT 07/M09 A3022 RMK A01 T00661094  RH  031%=      5-min Rain = 0
KSB1 240151Z 30005KT 07/M09 A3022 RMK A01 T00661092  RH  031%=      5-min Rain = 0
KSB1 240152Z 30007KT 07/M09 A3022 RMK A01 T00661092  RH  031%=      5-min Rain = 0
KSB1 240153Z 30006KT 07/M09 A3022 RMK A01 T00661092  RH  031%=      5-min Rain = 0
KSB1 240154Z 30006KT 07/M09 A3022 RMK A01 T00661091  RH  031%=      5-min Rain = 0
KSB1 240155Z 32009KT 07/M09 A3022 RMK A01 T00661092  RH  031%=      5-min Rain = 0
KSB1 240156Z 30007KT 07/M09 A3022 RMK A01 T00681092  RH  031%=      5-min Rain = 0
KSB1 240157Z 30007KT 07/M09 A3022 RMK A01 T00681092  RH  031%=      5-min Rain = 0
KSB1 240158Z 30006KT 07/M09 A3022 RMK A01 T00681092  RH  031%=      5-min Rain = 0
KSB1 240159Z 29006KT 07/M09 A3022 RMK A01 T00681092  RH  031%=      5-min Rain = 0
KSB1 240200Z 28008KT 07/M09 A3022 RMK A01 T00671092  RH  031%=      5-min Rain = 0
KSB1 240201Z 30007KT 07/M09 A3022 RMK A01 T00671092  RH  031%=      5-min Rain = 0
KSB1 240202Z 31006KT 07/M09 A3022 RMK A01 T00671093  RH  031%=      5-min Rain = 0
KSB1 240203Z 30009KT 07/M09 A3022 RMK A01 T00671093  RH  031%=      5-min Rain = 0
KSB1 240204Z 30009KT 07/M09 A3022 RMK A01 T00671092  RH  031%=      5-min Rain = 0
KSB1 240205Z 29009KT 07/M09 A3022 RMK A01 T00671092  RH  031%=      5-min Rain = 0
KSB1 240206Z 30008KT 07/M09 A3022 RMK A01 T00681092  RH  031%=      5-min Rain = 0
KSB1 240207Z 30009KT 07/M09 A3022 RMK A01 T00661092  RH  031%=      5-min Rain = 0
KSB1 240208Z 30011KT 07/M09 A3022 RMK A01 T00651092  RH  031%=      5-min Rain = 0
KSB1 240209Z 30009KT 07/M09 A3022 RMK A01 T00651091  RH  032%=      5-min Rain = 0
KSB1 240210Z 30009KT 07/M09 A3022 RMK A01 T00651091  RH  032%=      5-min Rain = 0
KSB1 240211Z 31009KT 06/M09 A3022 RMK A01 T00641091  RH  032%=      5-min Rain = 0
KSB1 240212Z 30009KT 06/M09 A3022 RMK A01 T00641091  RH  032%=      5-min Rain = 0
KSB1 240213Z 31010KT 06/M09 A3022 RMK A01 T00641090  RH  032%=      5-min Rain = 0
KSB1 240214Z 31010KT 07/M09 A3022 RMK A01 T00651090  RH  032%=      5-min Rain = 0
KSB1 240215Z 31009KT 07/M09 A3023 RMK A01 T00651090  RH  032%=      5-min Rain = 0
KSB1 240216Z 31010KT 07/M09 A3023 RMK A01 T00651090  RH  032%=      5-min Rain = 0
KSB1 240217Z 31010KT 06/M09 A3023 RMK A01 T00641089  RH  032%=      5-min Rain = 0
KSB1 240218Z 31010KT 07/M09 A3023 RMK A01 T00651089  RH  032%=      5-min Rain = 0
KSB1 240219Z 31011KT 06/M09 A3023 RMK A01 T00641089  RH  032%=      5-min Rain = 0
KSB1 240220Z 31009KT 06/M09 A3022 RMK A01 T00641089  RH  033%=      5-min Rain = 0
KSB1 240221Z 30009KT 07/M09 A3023 RMK A01 T00651088  RH  033%=      5-min Rain = 0
KSB1 240222Z 30011KT 06/M09 A3022 RMK A01 T00631088  RH  033%=      5-min Rain = 0
KSB1 240223Z 30011KT 06/M09 A3022 RMK A01 T00631087  RH  033%=      5-min Rain = 0
KSB1 240224Z 30011KT 06/M09 A3022 RMK A01 T00631087  RH  033%=      5-min Rain = 0
KSB1 240225Z 30010KT 06/M09 A3023 RMK A01 T00631087  RH  033%=      5-min Rain = 0
KSB1 240226Z 30012KT 06/M09 A3023 RMK A01 T00631086  RH  034%=      5-min Rain = 0
KSB1 240227Z 30010KT 06/M09 A3023 RMK A01 T00641085  RH  034%=      5-min Rain = 0
KSB1 240228Z 30011KT 07/M09 A3023 RMK A01 T00651085  RH  033%=      5-min Rain = 0
KSB1 240229Z 31009KT 07/M09 A3023 RMK A01 T00651085  RH  033%=      5-min Rain = 0
KSB1 240230Z 31009KT 06/M09 A3023 RMK A01 T00641085  RH  034%=      5-min Rain = 0
KSB1 240231Z 30009KT 06/M09 A3023 RMK A01 T00641085  RH  034%=      5-min Rain = 0
KSB1 240232Z 31008KT 06/M09 A3023 RMK A01 T00641085  RH  034%=      5-min Rain = 0
KSB1 240233Z 30009KT 06/M09 A3023 RMK A01 T00631085  RH  034%=      5-min Rain = 0
KSB1 240234Z 31010KT 06/M09 A3024 RMK A01 T00631085  RH  034%=      5-min Rain = 0
KSB1 240235Z 29009KT 06/M08 A3024 RMK A01 T00631084  RH  034%=      5-min Rain = 0
KSB1 240236Z 30010KT 06/M08 A3024 RMK A01 T00631084  RH  034%=      5-min Rain = 0
KSB1 240237Z 30011KT 06/M08 A3024 RMK A01 T00631084  RH  034%=      5-min Rain = 0
KSB1 240238Z 30011KT 06/M08 A3024 RMK A01 T00631084  RH  034%=      5-min Rain = 0
KSB1 240239Z 30010KT 06/M09 A3024 RMK A01 T00631085  RH  034%=      5-min Rain = 0
KSB1 240240Z 30008KT 06/M09 A3024 RMK A01 T00641085  RH  034%=      5-min Rain = 0
KSB1 240241Z 30009KT 06/M08 A3024 RMK A01 T00631084  RH  034%=      5-min Rain = 0
KSB1 240242Z 29008KT 06/M09 A3024 RMK A01 T00611085  RH  034%=      5-min Rain = 0
KSB1 240243Z 29008KT 06/M09 A3024 RMK A01 T00601085  RH  035%=      5-min Rain = 0
KSB1 240244Z 29009KT 06/M09 A3024 RMK A01 T00591085  RH  035%=      5-min Rain = 0
KSB1 240245Z 29009KT 06/M08 A3024 RMK A01 T00591084  RH  035%=      5-min Rain = 0
KSB1 240246Z 29009KT 06/M08 A3024 RMK A01 T00591084  RH  035%=      5-min Rain = 0
KSB1 240247Z 29008KT 06/M08 A3024 RMK A01 T00581084  RH  035%=      5-min Rain = 0
KSB1 240248Z 29009KT 06/M08 A3024 RMK A01 T00571084  RH  035%=      5-min Rain = 0
KSB1 240249Z 29009KT 06/M08 A3024 RMK A01 T00571084  RH  036%=      5-min Rain = 0
KSB1 240250Z 29010KT 06/M08 A3023 RMK A01 T00571084  RH  036%=      5-min Rain = 0
KSB1 240251Z 29011KT 06/M08 A3023 RMK A01 T00571084  RH  036%=      5-min Rain = 0
KSB1 240252Z 29010KT 06/M08 A3023 RMK A01 T00571084  RH  036%=      5-min Rain = 0
KSB1 240253Z 29011KT 06/M08 A3023 RMK A01 T00571084  RH  036%=      5-min Rain = 0
KSB1 240254Z 30010KT 06/M08 A3024 RMK A01 T00571084  RH  036%=      5-min Rain = 0
KSB1 240255Z 30011KT 06/M08 A3024 RMK A01 T00571083  RH  036%=      5-min Rain = 0
KSB1 240256Z 30011KT 06/M08 A3024 RMK A01 T00581083  RH  036%=      5-min Rain = 0
KSB1 240257Z 29011KT 06/M08 A3024 RMK A01 T00581083  RH  035%=      5-min Rain = 0
KSB1 240258Z 30010KT 06/M08 A3024 RMK A01 T00591083  RH  035%=      5-min Rain = 0
KSB1 240259Z 30010KT 06/M08 A3024 RMK A01 T00591083  RH  035%=      5-min Rain = 0
KSB1 240300Z 30010KT 06/M08 A3024 RMK A01 T00591083  RH  035%=      5-min Rain = 0
KSB1 240301Z 30009KT 06/M08 A3024 RMK A01 T00591082  RH  036%=      5-min Rain = 0
KSB1 240302Z 30010KT 06/M08 A3024 RMK A01 T00591082  RH  036%=      5-min Rain = 0
KSB1 240303Z 29008KT 06/M08 A3024 RMK A01 T00591081  RH  036%=      5-min Rain = 0
KSB1 240304Z 29009KT 06/M08 A3024 RMK A01 T00591082  RH  036%=      5-min Rain = 0
KSB1 240305Z 29009KT 06/M08 A3024 RMK A01 T00591082  RH  036%=      5-min Rain = 0
KSB1 240306Z 28009KT 06/M08 A3024 RMK A01 T00591081  RH  036%=      5-min Rain = 0
KSB1 240307Z 28010KT 06/M08 A3024 RMK A01 T00581081  RH  036%=      5-min Rain = 0
KSB1 240308Z 28008KT 06/M08 A3024 RMK A01 T00571081  RH  036%=      5-min Rain = 0
KSB1 240309Z 28008KT 06/M08 A3024 RMK A01 T00561082  RH  036%=      5-min Rain = 0
KSB1 240310Z 28008KT 06/M08 A3024 RMK A01 T00551082  RH  036%=      5-min Rain = 0
KSB1 240311Z 28009KT 05/M08 A3024 RMK A01 T00541082  RH  037%=      5-min Rain = 0
KSB1 240312Z 29009KT 05/M08 A3024 RMK A01 T00531083  RH  037%=      5-min Rain = 0
KSB1 240313Z 29010KT 05/M08 A3024 RMK A01 T00521082  RH  037%=      5-min Rain = 0
KSB1 240314Z 29009KT 05/M08 A3024 RMK A01 T00521081  RH  038%=      5-min Rain = 0
KSB1 240315Z 29010KT 05/M08 A3024 RMK A01 T00541080  RH  037%=      5-min Rain = 0
KSB1 240316Z 29011KT 06/M08 A3024 RMK A01 T00561081  RH  037%=      5-min Rain = 0
KSB1 240317Z 29010KT 06/M08 A3024 RMK A01 T00581081  RH  036%=      5-min Rain = 0
KSB1 240318Z 30011KT 06/M08 A3024 RMK A01 T00591080  RH  036%=      5-min Rain = 0
KSB1 240319Z 29009KT 06/M08 A3024 RMK A01 T00591081  RH  036%=      5-min Rain = 0
KSB1 240320Z 29009KT 06/M08 A3024 RMK A01 T00591081  RH  036%=      5-min Rain = 0
KSB1 240321Z 29010KT 06/M08 A3024 RMK A01 T00601080  RH  036%=      5-min Rain = 0
KSB1 240322Z 30013KT 06/M08 A3024 RMK A01 T00591080  RH  036%=      5-min Rain = 0
KSB1 240323Z 29011KT 06/M08 A3024 RMK A01 T00591080  RH  036%=      5-min Rain = 0
KSB1 240324Z 29010KT 06/M08 A3024 RMK A01 T00601080  RH  036%=      5-min Rain = 0
KSB1 240325Z 29012KT 06/M08 A3024 RMK A01 T00591080  RH  036%=      5-min Rain = 0
KSB1 240326Z 29010KT 06/M08 A3024 RMK A01 T00581080  RH  036%=      5-min Rain = 0
KSB1 240327Z 29009KT 06/M08 A3024 RMK A01 T00581080  RH  036%=      5-min Rain = 0
KSB1 240328Z 29010KT 06/M08 A3024 RMK A01 T00571080  RH  037%=      5-min Rain = 0
KSB1 240329Z 29010KT 06/M08 A3024 RMK A01 T00561080  RH  037%=      5-min Rain = 0
KSB1 240330Z 29009KT 06/M08 A3024 RMK A01 T00561080  RH  037%=      5-min Rain = 0
KSB1 240331Z 29010KT 06/M08 A3024 RMK A01 T00561079  RH  037%=      5-min Rain = 0
KSB1 240332Z 29009KT 06/M08 A3024 RMK A01 T00561079  RH  037%=      5-min Rain = 0
KSB1 240333Z 29010KT 06/M08 A3025 RMK A01 T00571079  RH  037%=      5-min Rain = 0
KSB1 240334Z 29009KT 06/M08 A3025 RMK A01 T00571079  RH  037%=      5-min Rain = 0
KSB1 240335Z 29008KT 06/M08 A3025 RMK A01 T00571080  RH  037%=      5-min Rain = 0
KSB1 240336Z 29007KT 06/M08 A3025 RMK A01 T00581080  RH  036%=      5-min Rain = 0
KSB1 240337Z 29006KT 06/M08 A3025 RMK A01 T00581080  RH  036%=      5-min Rain = 0
KSB1 240338Z 28006KT 06/M08 A3025 RMK A01 T00581080  RH  036%=      5-min Rain = 0
KSB1 240339Z 28007KT 06/M08 A3025 RMK A01 T00571080  RH  037%=      5-min Rain = 0
KSB1 240340Z 29005KT 06/M08 A3025 RMK A01 T00581080  RH  037%=      5-min Rain = 0
KSB1 240341Z 28007KT 06/M08 A3025 RMK A01 T00581080  RH  036%=      5-min Rain = 0
KSB1 240342Z 28007KT 06/M08 A3025 RMK A01 T00581081  RH  036%=      5-min Rain = 0
KSB1 240343Z 28008KT 06/M08 A3025 RMK A01 T00581081  RH  036%=      5-min Rain = 0
KSB1 240344Z 28008KT 06/M08 A3025 RMK A01 T00591081  RH  036%=      5-min Rain = 0
KSB1 240345Z 28006KT 06/M08 A3025 RMK A01 T00581081  RH  036%=      5-min Rain = 0
KSB1 240346Z 26006KT 06/M08 A3025 RMK A01 T00551082  RH  037%=      5-min Rain = 0
KSB1 240347Z 22006KT 05/M09 A3025 RMK A01 T00481085  RH  038%=      5-min Rain = 0
KSB1 240348Z 24006KT 04/M09 A3026 RMK A01 T00421086  RH  039%=      5-min Rain = 0
KSB1 240349Z 24005KT 04/M08 A3026 RMK A01 T00411084  RH  040%=      5-min Rain = 0
KSB1 240350Z 25005KT 04/M08 A3026 RMK A01 T00411083  RH  040%=      5-min Rain = 0
KSB1 240351Z 26006KT 04/M08 A3026 RMK A01 T00421082  RH  040%=      5-min Rain = 0
KSB1 240352Z 26006KT 04/M08 A3026 RMK A01 T00421082  RH  040%=      5-min Rain = 0
KSB1 240353Z 27006KT 04/M08 A3026 RMK A01 T00421082  RH  040%=      5-min Rain = 0
KSB1 240354Z 27006KT 04/M08 A3026 RMK A01 T00411083  RH  040%=      5-min Rain = 0
KSB1 240355Z 27007KT 04/M08 A3026 RMK A01 T00401083  RH  040%=      5-min Rain = 0
KSB1 240356Z 27007KT 04/M08 A3026 RMK A01 T00371084  RH  041%=      5-min Rain = 0
KSB1 240357Z 27007KT 03/M09 A3026 RMK A01 T00331085  RH  042%=      5-min Rain = 0
KSB1 240358Z 28007KT 03/M09 A3026 RMK A01 T00311085  RH  042%=      5-min Rain = 0
KSB1 240359Z 28008KT 03/M08 A3026 RMK A01 T00291084  RH  043%=      5-min Rain = 0
KSB1 240400Z 28008KT 03/M08 A3026 RMK A01 T00291083  RH  044%=      5-min Rain = 0
KSB1 240401Z 28008KT 03/M08 A3026 RMK A01 T00291082  RH  044%=      5-min Rain = 0
KSB1 240402Z 29008KT 03/M08 A3026 RMK A01 T00301081  RH  044%=      5-min Rain = 0
KSB1 240403Z 29007KT 03/M08 A3026 RMK A01 T00311081  RH  043%=      5-min Rain = 0
KSB1 240404Z 29007KT 03/M08 A3026 RMK A01 T00321081  RH  043%=      5-min Rain = 0
KSB1 240405Z 30006KT 04/M08 A3026 RMK A01 T00351081  RH  042%=      5-min Rain = 0
KSB1 240406Z 29004KT 04/M08 A3026 RMK A01 T00381081  RH  041%=      5-min Rain = 0
KSB1 240407Z 24002KT 04/M08 A3026 RMK A01 T00391083  RH  041%=      5-min Rain = 0
KSB1 240408Z 15002KT 03/M09 A3026 RMK A01 T00341088  RH  040%=      5-min Rain = 0
KSB1 240409Z 16003KT 03/M09 A3026 RMK A01 T00281092  RH  041%=      5-min Rain = 0
KSB1 240410Z 19002KT 02/M09 A3026 RMK A01 T00241091  RH  042%=      5-min Rain = 0
KSB1 240411Z 19002KT 02/M09 A3026 RMK A01 T00231088  RH  044%=      5-min Rain = 0
KSB1 240412Z 15001KT 03/M08 A3027 RMK A01 T00261084  RH  044%=      5-min Rain = 0
KSB1 240413Z 19000KT 03/M08 A3027 RMK A01 T00271084  RH  044%=      5-min Rain = 0
KSB1 240414Z 16000KT 03/M09 A3027 RMK A01 T00271085  RH  043%=      5-min Rain = 0
KSB1 240415Z 32000KT 03/M09 A3027 RMK A01 T00271085  RH  043%=      5-min Rain = 0
KSB1 240416Z 30002KT 03/M09 A3027 RMK A01 T00281085  RH  043%=      5-min Rain = 0
KSB1 240417Z 26001KT 03/M08 A3027 RMK A01 T00291084  RH  043%=      5-min Rain = 0
KSB1 240418Z 29002KT 03/M08 A3027 RMK A01 T00311084  RH  043%=      5-min Rain = 0
KSB1 240419Z 29004KT 03/M08 A3027 RMK A01 T00331083  RH  042%=      5-min Rain = 0
KSB1 240420Z 25002KT 04/M08 A3027 RMK A01 T00351081  RH  042%=      5-min Rain = 0
KSB1 240421Z 22002KT 04/M08 A3027 RMK A01 T00371083  RH  041%=      5-min Rain = 0
KSB1 240422Z 21001KT 04/M09 A3027 RMK A01 T00361085  RH  041%=      5-min Rain = 0
KSB1 240423Z 19003KT 04/M09 A3027 RMK A01 T00351085  RH  041%=      5-min Rain = 0
KSB1 240424Z 20004KT 03/M09 A3027 RMK A01 T00331087  RH  041%=      5-min Rain = 0
KSB1 240425Z 21004KT 03/M09 A3027 RMK A01 T00301088  RH  042%=      5-min Rain = 0
KSB1 240426Z 22004KT 03/M09 A3027 RMK A01 T00271089  RH  042%=      5-min Rain = 0
KSB1 240427Z 23003KT 03/M09 A3027 RMK A01 T00251088  RH  043%=      5-min Rain = 0
KSB1 240428Z 22003KT 02/M09 A3027 RMK A01 T00241086  RH  044%=      5-min Rain = 0
KSB1 240429Z 22003KT 02/M09 A3027 RMK A01 T00241086  RH  044%=      5-min Rain = 0
KSB1 240430Z 23003KT 02/M09 A3027 RMK A01 T00231087  RH  044%=      5-min Rain = 0
KSB1 240431Z 22003KT 02/M09 A3027 RMK A01 T00221086  RH  045%=      5-min Rain = 0
KSB1 240432Z 23003KT 02/M09 A3027 RMK A01 T00211086  RH  045%=      5-min Rain = 0
KSB1 240433Z 24004KT 02/M09 A3027 RMK A01 T00201085  RH  045%=      5-min Rain = 0
KSB1 240434Z 26004KT 02/M08 A3027 RMK A01 T00221082  RH  046%=      5-min Rain = 0
KSB1 240435Z 25004KT 03/M08 A3027 RMK A01 T00271079  RH  045%=      5-min Rain = 0
KSB1 240436Z 24004KT 03/M08 A3027 RMK A01 T00281081  RH  044%=      5-min Rain = 0
KSB1 240437Z 24005KT 03/M08 A3027 RMK A01 T00281082  RH  044%=      5-min Rain = 0
KSB1 240438Z 24006KT 03/M08 A3027 RMK A01 T00271083  RH  044%=      5-min Rain = 0
KSB1 240439Z 24006KT 03/M08 A3027 RMK A01 T00251083  RH  045%=      5-min Rain = 0
KSB1 240440Z 25006KT 02/M08 A3027 RMK A01 T00241083  RH  045%=      5-min Rain = 0
KSB1 240441Z 25005KT 02/M08 A3027 RMK A01 T00231082  RH  046%=      5-min Rain = 0
KSB1 240442Z 26004KT 02/M08 A3027 RMK A01 T00231082  RH  046%=      5-min Rain = 0
KSB1 240443Z 24004KT 02/M08 A3028 RMK A01 T00231081  RH  046%=      5-min Rain = 0
KSB1 240444Z 23003KT 02/M08 A3028 RMK A01 T00231081  RH  046%=      5-min Rain = 0
KSB1 240445Z 22004KT 02/M08 A3028 RMK A01 T00231080  RH  046%=      5-min Rain = 0
KSB1 240446Z 23004KT 02/M08 A3028 RMK A01 T00231080  RH  046%=      5-min Rain = 0
KSB1 240447Z 23005KT 02/M08 A3028 RMK A01 T00241080  RH  046%=      5-min Rain = 0
KSB1 240448Z 22005KT 02/M08 A3028 RMK A01 T00241079  RH  046%=      5-min Rain = 0
KSB1 240449Z 23006KT 03/M08 A3028 RMK A01 T00261079  RH  046%=      5-min Rain = 0
KSB1 240450Z 22006KT 03/M08 A3028 RMK A01 T00271079  RH  046%=      5-min Rain = 0
KSB1 240451Z 24006KT 03/M08 A3028 RMK A01 T00281078  RH  046%=      5-min Rain = 0
KSB1 240452Z 22004KT 03/M08 A3028 RMK A01 T00281080  RH  045%=      5-min Rain = 0
KSB1 240453Z 23004KT 03/M08 A3028 RMK A01 T00271082  RH  045%=      5-min Rain = 0
KSB1 240454Z 23004KT 03/M08 A3028 RMK A01 T00271080  RH  045%=      5-min Rain = 0
KSB1 240455Z 22005KT 03/M08 A3028 RMK A01 T00301078  RH  045%=      5-min Rain = 0
KSB1 240456Z 24006KT 03/M08 A3028 RMK A01 T00311078  RH  044%=      5-min Rain = 0
KSB1 240457Z 24005KT 03/M08 A3028 RMK A01 T00331078  RH  044%=      5-min Rain = 0
KSB1 240458Z 23005KT 03/M08 A3028 RMK A01 T00331079  RH  044%=      5-min Rain = 0
KSB1 240459Z 24005KT 03/M08 A3028 RMK A01 T00341077  RH  044%=      5-min Rain = 0
KSB1 240500Z 24004KT 04/M07 A3028 RMK A01 T00381074  RH  044%=      5-min Rain = 0
KSB1 240501Z 24004KT 04/M08 A3028 RMK A01 T00401075  RH  043%=      5-min Rain = 0
KSB1 240502Z 25003KT 04/M08 A3028 RMK A01 T00411076  RH  042%=      5-min Rain = 0
KSB1 240503Z 24002KT 04/M08 A3029 RMK A01 T00421076  RH  042%=      5-min Rain = 0
KSB1 240504Z 25003KT 04/M08 A3029 RMK A01 T00431076  RH  042%=      5-min Rain = 0
KSB1 240505Z 24002KT 04/M08 A3029 RMK A01 T00441076  RH  042%=      5-min Rain = 0
KSB1 240506Z 22002KT 05/M08 A3029 RMK A01 T00451076  RH  041%=      5-min Rain = 0
KSB1 240507Z 20003KT 05/M08 A3029 RMK A01 T00461075  RH  041%=      5-min Rain = 0
KSB1 240508Z 22003KT 05/M08 A3028 RMK A01 T00471076  RH  041%=      5-min Rain = 0
KSB1 240509Z 22003KT 05/M08 A3028 RMK A01 T00461076  RH  041%=      5-min Rain = 0
KSB1 240510Z 23003KT 04/M08 A3028 RMK A01 T00441078  RH  041%=      5-min Rain = 0
KSB1 240511Z 26004KT 04/M08 A3028 RMK A01 T00421078  RH  041%=      5-min Rain = 0
KSB1 240512Z 25005KT 04/M08 A3028 RMK A01 T00441076  RH  041%=      5-min Rain = 0
KSB1 240513Z 26006KT 05/M08 A3028 RMK A01 T00451076  RH  041%=      5-min Rain = 0
KSB1 240514Z 26006KT 04/M08 A3028 RMK A01 T00441077  RH  041%=      5-min Rain = 0
KSB1 240515Z 26006KT 04/M08 A3028 RMK A01 T00401079  RH  042%=      5-min Rain = 0
KSB1 240516Z 26006KT 04/M08 A3028 RMK A01 T00371079  RH  043%=      5-min Rain = 0
KSB1 240517Z 26005KT 03/M08 A3028 RMK A01 T00341079  RH  043%=      5-min Rain = 0
KSB1 240518Z 26005KT 03/M08 A3028 RMK A01 T00321079  RH  044%=      5-min Rain = 0
KSB1 240519Z 27004KT 03/M08 A3028 RMK A01 T00301078  RH  045%=      5-min Rain = 0
KSB1 240520Z 28003KT 03/M08 A3028 RMK A01 T00301078  RH  045%=      5-min Rain = 0
KSB1 240521Z 30002KT 03/M08 A3028 RMK A01 T00301077  RH  045%=      5-min Rain = 0
KSB1 240522Z 33003KT 03/M08 A3028 RMK A01 T00311076  RH  045%=      5-min Rain = 0
KSB1 240523Z 01003KT 03/M08 A3028 RMK A01 T00321077  RH  045%=      5-min Rain = 0
KSB1 240524Z 02003KT 03/M08 A3028 RMK A01 T00321078  RH  044%=      5-min Rain = 0
KSB1 240525Z 02003KT 03/M08 A3028 RMK A01 T00301079  RH  045%=      5-min Rain = 0
KSB1 240526Z 01003KT 03/M08 A3028 RMK A01 T00281079  RH  045%=      5-min Rain = 0
KSB1 240527Z 04003KT 03/M08 A3028 RMK A01 T00281079  RH  045%=      5-min Rain = 0
KSB1 240528Z 03002KT 03/M08 A3028 RMK A01 T00271080  RH  045%=      5-min Rain = 0
KSB1 240529Z 00001KT 03/M08 A3028 RMK A01 T00261080  RH  046%=      5-min Rain = 0
KSB1 240530Z 29002KT 03/M08 A3028 RMK A01 T00251080  RH  046%=      5-min Rain = 0
KSB1 240531Z 28003KT 03/M08 A3028 RMK A01 T00251079  RH  046%=      5-min Rain = 0
KSB1 240532Z 17001KT 03/M08 A3028 RMK A01 T00251079  RH  046%=      5-min Rain = 0
KSB1 240533Z 15002KT 02/M08 A3028 RMK A01 T00211081  RH  046%=      5-min Rain = 0
KSB1 240534Z 12002KT 02/M08 A3028 RMK A01 T00201082  RH  047%=      5-min Rain = 0
KSB1 240535Z 09003KT 02/M08 A3028 RMK A01 T00181081  RH  048%=      5-min Rain = 0
KSB1 240536Z 08004KT 02/M08 A3028 RMK A01 T00151084  RH  048%=      5-min Rain = 0
KSB1 240537Z 08004KT 01/M09 A3028 RMK A01 T00111086  RH  048%=      5-min Rain = 0
KSB1 240538Z 08004KT 01/M09 A3028 RMK A01 T00081088  RH  049%=      5-min Rain = 0
KSB1 240539Z 05002KT 01/M09 A3028 RMK A01 T00061089  RH  049%=      5-min Rain = 0
KSB1 240540Z 10002KT 01/M09 A3028 RMK A01 T00051087  RH  050%=      5-min Rain = 0
KSB1 240541Z 13002KT 01/M08 A3028 RMK A01 T00061084  RH  051%=      5-min Rain = 0
KSB1 240542Z 12002KT 01/M08 A3028 RMK A01 T00071084  RH  050%=      5-min Rain = 0
KSB1 240543Z 14002KT 01/M08 A3028 RMK A01 T00081083  RH  051%=      5-min Rain = 0
KSB1 240544Z 14002KT 01/M08 A3028 RMK A01 T00091083  RH  050%=      5-min Rain = 0
KSB1 240545Z 16002KT 01/M09 A3028 RMK A01 T00081086  RH  049%=      5-min Rain = 0
KSB1 240546Z 18003KT 01/M09 A3028 RMK A01 T00061088  RH  049%=      5-min Rain = 0
KSB1 240547Z 18004KT 01/M09 A3029 RMK A01 T00061088  RH  049%=      5-min Rain = 0
KSB1 240548Z 19004KT 00/M09 A3029 RMK A01 T00041088  RH  050%=      5-min Rain = 0
KSB1 240549Z 19003KT 00/M09 A3029 RMK A01 T00031088  RH  050%=      5-min Rain = 0
KSB1 240550Z 20002KT 00/M09 A3029 RMK A01 T00021088  RH  051%=      5-min Rain = 0
KSB1 240551Z 19002KT 00/M09 A3029 RMK A01 T00021087  RH  051%=      5-min Rain = 0
KSB1 240552Z 21003KT 00/M09 A3028 RMK A01 T00011087  RH  052%=      5-min Rain = 0
KSB1 240553Z 25002KT 00/M09 A3028 RMK A01 T00011086  RH  052%=      5-min Rain = 0
KSB1 240554Z 32001KT 00/M09 A3028 RMK A01 T00011085  RH  053%=      5-min Rain = 0
KSB1 240555Z 25001KT 00/M08 A3028 RMK A01 T00031081  RH  053%=      5-min Rain = 0
KSB1 240556Z 26001KT 01/M08 A3028 RMK A01 T00071080  RH  052%=      5-min Rain = 0
KSB1 240557Z 25002KT 01/M08 A3028 RMK A01 T00091080  RH  051%=      5-min Rain = 0
KSB1 240558Z 25003KT 01/M08 A3028 RMK A01 T00111080  RH  051%=      5-min Rain = 0
KSB1 240559Z 25002KT 01/M08 A3028 RMK A01 T00141079  RH  050%=      5-min Rain = 0

Page generated in 0.0815 seconds.